Wetterdaten: Freitag, 24.06.2022
Datum Zeit Temp. Aussen Temp. o. S. Temp +5cm Feuchte Auss Luftdruck Regen Sonnenschein Regendauer Solar Windben Empfang
24.06.2022 00:00 22,9 C 21,7 C 18,3 C 83 % 1007,4 hPa 0,0 l/m 0 min 0 min 0 W/m 3,2 km/h (1 Bft) 97,87 %
24.06.2022 00:02 22,8 C 21,7 C 18,3 C 83 % 1007,4 hPa 0,0 l/m 0 min 0 min 0 W/m 3,2 km/h (1 Bft) 100,00 %
24.06.2022 00:04 22,7 C 21,7 C 18,3 C 83 % 1007,3 hPa 0,0 l/m 0 min 0 min 0 W/m 6,4 km/h (2 Bft) 95,74 %
24.06.2022 00:08 22,7 C 21,7 C 18,3 C 84 % 1007,1 hPa 0,0 l/m 0 min 0 min 0 W/m 9,7 km/h (2 Bft) 96,34 %
24.06.2022 00:10 22,6 C 21,7 C 18,3 C 84 % 1007,1 hPa 0,0 l/m 0 min 0 min 0 W/m 6,4 km/h (2 Bft) 97,87 %
24.06.2022 00:12 22,6 C 21,7 C 18,3 C 84 % 1007,1 hPa 0,0 l/m 0 min 0 min 0 W/m 9,7 km/h (2 Bft) 95,74 %
24.06.2022 00:14 22,6 C 21,7 C 18,3 C 84 % 1007,1 hPa 0,0 l/m 0 min 0 min 0 W/m 6,4 km/h (2 Bft) 95,74 %
24.06.2022 00:16 22,5 C 21,1 C 18,3 C 85 % 1007,0 hPa 0,0 l/m 0 min 0 min 0 W/m 3,2 km/h (1 Bft) 93,62 %
24.06.2022 00:18 22,4 C 21,1 C 18,3 C 85 % 1007,0 hPa 0,0 l/m 0 min 0 min 0 W/m 3,2 km/h (1 Bft) 95,65 %
24.06.2022 00:20 22,3 C 21,1 C 18,3 C 85 % 1007,0 hPa 0,0 l/m 0 min 0 min 0 W/m 3,2 km/h (1 Bft) 95,74 %
24.06.2022 00:22 22,3 C 21,1 C 18,3 C 85 % 1007,0 hPa 0,0 l/m 0 min 0 min 0 W/m 3,2 km/h (1 Bft) 95,74 %
24.06.2022 00:24 22,2 C 21,1 C 18,3 C 86 % 1007,0 hPa 0,0 l/m 0 min 0 min 0 W/m 3,2 km/h (1 Bft) 93,62 %
24.06.2022 00:26 22,2 C 21,1 C 18,3 C 86 % 1007,0 hPa 0,0 l/m 0 min 0 min 0 W/m 0,0 km/h (0 Bft) 95,74 %
24.06.2022 00:28 22,2 C 21,1 C 18,3 C 86 % 1007,0 hPa 0,0 l/m 0 min 0 min 0 W/m 3,2 km/h (1 Bft) 93,48 %
24.06.2022 00:30 22,2 C 21,1 C 18,3 C 86 % 1007,0 hPa 0,0 l/m 0 min 0 min 0 W/m 3,2 km/h (1 Bft) 95,74 %
24.06.2022 00:32 22,2 C 21,1 C 18,3 C 86 % 1007,0 hPa 0,0 l/m 0 min 0 min 0 W/m 3,2 km/h (1 Bft) 95,74 %
24.06.2022 00:34 22,2 C 21,1 C 18,3 C 86 % 1007,0 hPa 0,0 l/m 0 min 0 min 0 W/m 3,2 km/h (1 Bft) 95,74 %
24.06.2022 00:36 22,2 C 21,1 C 18,3 C 86 % 1007,0 hPa 0,0 l/m 0 min 0 min 0 W/m 3,2 km/h (1 Bft) 96,61 %
24.06.2022 00:38 22,1 C 21,1 C 18,3 C 86 % 1007,0 hPa 0,0 l/m 0 min 0 min 0 W/m 0,0 km/h (0 Bft) 95,65 %
24.06.2022 00:40 22,1 C 21,1 C 18,3 C 86 % 1006,9 hPa 0,0 l/m 0 min 0 min 0 W/m 0,0 km/h (0 Bft) 97,14 %
24.06.2022 00:42 22,1 C 21,1 C 18,3 C 86 % 1006,8 hPa 0,0 l/m 0 min 0 min 0 W/m 3,2 km/h (1 Bft) 97,87 %
24.06.2022 00:44 22,1 C 21,1 C 18,3 C 86 % 1006,8 hPa 0,0 l/m 0 min 0 min 0 W/m 0,0 km/h (0 Bft) 100,00 %
24.06.2022 00:46 22,1 C 21,1 C 18,3 C 86 % 1006,8 hPa 0,0 l/m 0 min 0 min 0 W/m 0,0 km/h (0 Bft) 95,74 %
24.06.2022 00:48 22,1 C 21,1 C 18,3 C 86 % 1006,8 hPa 0,0 l/m 0 min 0 min 0 W/m 3,2 km/h (1 Bft) 97,87 %
24.06.2022 00:50 22,1 C 21,1 C 18,3 C 86 % 1006,8 hPa 0,0 l/m 0 min 0 min 0 W/m 0,0 km/h (0 Bft) 97,87 %
24.06.2022 00:52 22,1 C 21,1 C 18,3 C 86 % 1006,8 hPa 0,0 l/m 0 min 0 min 0 W/m 3,2 km/h (1 Bft) 97,83 %
24.06.2022 00:54 22,1 C 21,1 C 18,3 C 86 % 1006,7 hPa 0,0 l/m 0 min 0 min 0 W/m 3,2 km/h (1 Bft) 97,87 %
24.06.2022 00:56 22,1 C 21,1 C 18,3 C 86 % 1006,7 hPa 0,0 l/m 0 min 0 min 0 W/m 3,2 km/h (1 Bft) 95,74 %
24.06.2022 00:58 22,1 C 21,1 C 18,3 C 86 % 1006,7 hPa 0,0 l/m 0 min 0 min 0 W/m 3,2 km/h (1 Bft) 97,87 %
24.06.2022 01:00 22,1 C 21,1 C 18,3 C 86 % 1006,7 hPa 0,0 l/m 0 min 0 min 0 W/m 0,0 km/h (0 Bft) 97,87 %
24.06.2022 01:02 22,1 C 21,1 C 18,3 C 86 % 1006,7 hPa 0,0 l/m 0 min 0 min 0 W/m 0,0 km/h (0 Bft) 97,87 %
24.06.2022 01:04 22,1 C 21,1 C 18,3 C 86 % 1006,8 hPa 0,0 l/m 0 min 0 min 0 W/m 0,0 km/h (0 Bft) 95,65 %
24.06.2022 01:06 22,1 C 21,1 C 18,3 C 86 % 1007,0 hPa 0,0 l/m 0 min 0 min 0 W/m 3,2 km/h (1 Bft) 98,31 %
24.06.2022 01:08 22,1 C 21,1 C 18,3 C 86 % 1007,0 hPa 0,0 l/m 0 min 2 min 0 W/m 3,2 km/h (1 Bft) 97,14 %
24.06.2022 01:10 22,1 C 21,1 C 17,2 C 86 % 1006,8 hPa 0,0 l/m 0 min 2 min 0 W/m 3,2 km/h (1 Bft) 97,87 %
24.06.2022 01:12 22,2 C 21,1 C 17,2 C 87 % 1006,7 hPa 0,0 l/m 0 min 2 min 0 W/m 0,0 km/h (0 Bft) 95,74 %
24.06.2022 01:14 22,2 C 21,1 C 17,2 C 88 % 1006,6 hPa 0,2 l/m 0 min 2 min 0 W/m 3,2 km/h (1 Bft) 97,87 %
24.06.2022 01:16 22,2 C 20,6 C 16,7 C 89 % 1006,6 hPa 0,0 l/m 0 min 0 min 0 W/m 3,2 km/h (1 Bft) 97,83 %
24.06.2022 01:18 22,2 C 20,6 C 17,2 C 89 % 1006,6 hPa 0,0 l/m 0 min 0 min 0 W/m 0,0 km/h (0 Bft) 97,87 %
24.06.2022 01:20 22,2 C 20,6 C 17,2 C 89 % 1006,6 hPa 0,0 l/m 0 min 0 min 0 W/m 3,2 km/h (1 Bft) 97,87 %
24.06.2022 01:22 22,1 C 20,6 C 16,7 C 89 % 1006,7 hPa 0,0 l/m 0 min 0 min 0 W/m 9,7 km/h (2 Bft) 97,87 %
24.06.2022 01:24 22,1 C 20,6 C 16,7 C 89 % 1006,9 hPa 0,0 l/m 0 min 2 min 0 W/m 6,4 km/h (2 Bft) 97,87 %
24.06.2022 01:26 22,1 C 20,6 C 16,7 C 89 % 1007,0 hPa 0,2 l/m 0 min 2 min 0 W/m 6,4 km/h (2 Bft) 93,62 %
24.06.2022 01:28 22,1 C 20,6 C 16,7 C 89 % 1007,0 hPa 0,4 l/m 0 min 2 min 0 W/m 3,2 km/h (1 Bft) 97,87 %
24.06.2022 01:30 22,1 C 20,0 C 16,7 C 90 % 1007,0 hPa 0,2 l/m 0 min 2 min 0 W/m 6,4 km/h (2 Bft) 97,83 %
24.06.2022 01:32 22,0 C 20,0 C 16,7 C 90 % 1006,7 hPa 0,0 l/m 0 min 2 min 0 W/m 3,2 km/h (1 Bft) 97,87 %
24.06.2022 01:34 22,0 C 20,0 C 16,7 C 90 % 1006,5 hPa 0,0 l/m 0 min 2 min 0 W/m 3,2 km/h (1 Bft) 97,87 %
24.06.2022 01:36 21,9 C 19,4 C 16,7 C 90 % 1006,3 hPa 0,0 l/m 0 min 2 min 0 W/m 3,2 km/h (1 Bft) 100,00 %
24.06.2022 01:38 21,9 C 19,4 C 16,7 C 91 % 1006,3 hPa 0,0 l/m 0 min 2 min 0 W/m 6,4 km/h (2 Bft) 100,00 %
24.06.2022 01:40 21,8 C 19,4 C 16,7 C 91 % 1006,2 hPa 0,0 l/m 0 min 0 min 0 W/m 6,4 km/h (2 Bft) 100,00 %
24.06.2022 01:42 21,8 C 19,4 C 16,7 C 91 % 1006,2 hPa 0,0 l/m 0 min 0 min 0 W/m 3,2 km/h (1 Bft) 97,87 %
24.06.2022 01:44 21,7 C 19,4 C 16,1 C 91 % 1006,1 hPa 0,0 l/m 0 min 0 min 0 W/m 3,2 km/h (1 Bft) 100,00 %
24.06.2022 01:46 21,7 C 19,4 C 16,1 C 91 % 1006,0 hPa 0,0 l/m 0 min 0 min 0 W/m 3,2 km/h (1 Bft) 95,74 %
24.06.2022 01:48 21,6 C 19,4 C 16,1 C 91 % 1005,9 hPa 0,0 l/m 0 min 0 min 0 W/m 3,2 km/h (1 Bft) 100,00 %
24.06.2022 01:50 21,6 C 19,4 C 16,1 C 92 % 1005,8 hPa 0,0 l/m 0 min 0 min 0 W/m 3,2 km/h (1 Bft) 100,00 %
24.06.2022 01:52 21,5 C 19,4 C 16,1 C 92 % 1005,9 hPa 0,0 l/m 0 min 0 min 0 W/m 3,2 km/h (1 Bft) 100,00 %
24.06.2022 01:54 21,4 C 20,0 C 16,7 C 92 % 1005,9 hPa 0,0 l/m 0 min 0 min 0 W/m 3,2 km/h (1 Bft) 97,87 %
24.06.2022 01:56 21,4 C 20,0 C 16,7 C 92 % 1005,8 hPa 0,0 l/m 0 min 0 min 0 W/m 3,2 km/h (1 Bft) 100,00 %
24.06.2022 01:58 21,4 C 20,0 C 16,1 C 92 % 1005,8 hPa 0,0 l/m 0 min 0 min 0 W/m 3,2 km/h (1 Bft) 94,00 %
24.06.2022 02:00 21,3 C 20,0 C 16,1 C 92 % 1006,0 hPa 0,0 l/m 0 min 0 min 0 W/m 3,2 km/h (1 Bft) 100,00 %
24.06.2022 02:02 21,3 C 20,0 C 16,1 C 93 % 1006,0 hPa 0,0 l/m 0 min 0 min 0 W/m 3,2 km/h (1 Bft) 100,00 %
24.06.2022 02:04 21,4 C 20,0 C 16,7 C 93 % 1006,0 hPa 0,0 l/m 0 min 0 min 0 W/m 3,2 km/h (1 Bft) 97,87 %
24.06.2022 02:06 21,4 C 20,0 C 16,7 C 93 % 1006,0 hPa 0,0 l/m 0 min 0 min 0 W/m 3,2 km/h (1 Bft) 100,00 %
24.06.2022 02:08 21,4 C 20,0 C 16,7 C 93 % 1006,2 hPa 0,0 l/m 0 min 0 min 0 W/m 3,2 km/h (1 Bft) 100,00 %
24.06.2022 02:10 21,4 C 20,0 C 16,7 C 93 % 1006,3 hPa 0,0 l/m 0 min 0 min 0 W/m 9,7 km/h (2 Bft) 100,00 %
24.06.2022 02:12 21,4 C 20,0 C 16,7 C 93 % 1006,5 hPa 0,0 l/m 0 min 0 min 0 W/m 19,3 km/h (3 Bft) 97,87 %
24.06.2022 02:14 21,4 C 20,0 C 16,7 C 93 % 1006,7 hPa 0,0 l/m 0 min 0 min 0 W/m 25,7 km/h (4 Bft) 97,87 %
24.06.2022 02:16 21,3 C 20,0 C 16,1 C 93 % 1006,9 hPa 0,0 l/m 0 min 0 min 0 W/m 19,3 km/h (3 Bft) 100,00 %
24.06.2022 02:18 21,3 C 20,0 C 16,1 C 93 % 1006,9 hPa 0,0 l/m 0 min 0 min 0 W/m 19,3 km/h (3 Bft) 100,00 %
24.06.2022 02:20 21,2 C 20,0 C 16,1 C 93 % 1006,8 hPa 0,0 l/m 0 min 0 min 0 W/m 22,5 km/h (4 Bft) 100,00 %
24.06.2022 02:22 21,2 C 20,0 C 16,1 C 94 % 1006,8 hPa 0,0 l/m 0 min 0 min 0 W/m 19,3 km/h (3 Bft) 97,87 %
24.06.2022 02:24 21,1 C 20,0 C 16,1 C 94 % 1006,9 hPa 0,0 l/m 0 min 0 min 0 W/m 19,3 km/h (3 Bft) 100,00 %
24.06.2022 02:26 21,1 C 20,0 C 16,1 C 94 % 1007,0 hPa 0,0 l/m 0 min 0 min 0 W/m 19,3 km/h (3 Bft) 97,87 %
24.06.2022 02:28 21,1 C 20,0 C 16,1 C 94 % 1007,0 hPa 0,0 l/m 0 min 0 min 0 W/m 19,3 km/h (3 Bft) 100,00 %
24.06.2022 02:30 21,1 C 20,0 C 16,1 C 94 % 1007,0 hPa 0,0 l/m 0 min 0 min 0 W/m 16,1 km/h (3 Bft) 100,00 %
24.06.2022 02:32 21,1 C 20,0 C 16,1 C 94 % 1006,9 hPa 0,0 l/m 0 min 0 min 0 W/m 6,4 km/h (2 Bft) 97,87 %
24.06.2022 02:34 21,1 C 20,0 C 16,1 C 94 % 1006,8 hPa 0,0 l/m 0 min 0 min 0 W/m 6,4 km/h (2 Bft) 100,00 %
24.06.2022 02:36 21,1 C 20,0 C 16,1 C 94 % 1006,8 hPa 0,0 l/m 0 min 0 min 0 W/m 3,2 km/h (1 Bft) 98,28 %
24.06.2022 02:38 21,1 C 20,0 C 16,1 C 94 % 1006,9 hPa 0,0 l/m 0 min 0 min 0 W/m 3,2 km/h (1 Bft) 100,00 %
24.06.2022 02:40 21,1 C 20,0 C 16,1 C 94 % 1006,7 hPa 0,0 l/m 0 min 0 min 0 W/m 6,4 km/h (2 Bft) 95,65 %
24.06.2022 02:42 21,1 C 20,0 C 15,6 C 94 % 1006,7 hPa 0,0 l/m 0 min 0 min 0 W/m 6,4 km/h (2 Bft) 97,87 %
24.06.2022 02:44 21,0 C 20,0 C 15,6 C 93 % 1006,7 hPa 0,0 l/m 0 min 0 min 0 W/m 6,4 km/h (2 Bft) 97,87 %
24.06.2022 02:46 21,0 C 20,0 C 16,1 C 93 % 1006,8 hPa 0,0 l/m 0 min 0 min 0 W/m 6,4 km/h (2 Bft) 97,87 %
24.06.2022 02:48 21,0 C 20,0 C 15,6 C 93 % 1006,9 hPa 0,0 l/m 0 min 0 min 0 W/m 12,9 km/h (3 Bft) 97,87 %
24.06.2022 02:50 20,9 C 20,0 C 15,6 C 93 % 1007,0 hPa 0,0 l/m 0 min 0 min 0 W/m 9,7 km/h (2 Bft) 95,74 %
24.06.2022 02:52 20,9 C 20,0 C 15,6 C 93 % 1007,0 hPa 0,0 l/m 0 min 0 min 0 W/m 16,1 km/h (3 Bft) 97,83 %
24.06.2022 02:54 20,9 C 20,0 C 15,6 C 93 % 1007,1 hPa 0,0 l/m 0 min 0 min 0 W/m 12,9 km/h (3 Bft) 95,74 %
24.06.2022 02:56 20,9 C 20,0 C 15,6 C 92 % 1007,1 hPa 0,0 l/m 0 min 0 min 0 W/m 12,9 km/h (3 Bft) 95,74 %
24.06.2022 02:58 20,9 C 20,0 C 15,6 C 92 % 1007,1 hPa 0,0 l/m 0 min 0 min 0 W/m 6,4 km/h (2 Bft) 95,74 %
24.06.2022 03:00 20,9 C 20,0 C 15,6 C 93 % 1007,2 hPa 0,0 l/m 0 min 0 min 0 W/m 3,2 km/h (1 Bft) 95,74 %
24.06.2022 03:02 20,9 C 20,0 C 15,6 C 93 % 1007,5 hPa 0,0 l/m 0 min 0 min 0 W/m 12,9 km/h (3 Bft) 95,74 %
24.06.2022 03:04 20,9 C 20,0 C 16,1 C 93 % 1007,6 hPa 0,0 l/m 0 min 2 min 0 W/m 12,9 km/h (3 Bft) 91,30 %
24.06.2022 03:06 20,9 C 20,0 C 16,1 C 93 % 1007,7 hPa 0,0 l/m 0 min 2 min 0 W/m 16,1 km/h (3 Bft) 94,92 %
24.06.2022 03:08 20,9 C 20,0 C 16,1 C 93 % 1007,8 hPa 0,0 l/m 0 min 2 min 0 W/m 6,4 km/h (2 Bft) 91,43 %
24.06.2022 03:10 20,9 C 20,0 C 16,1 C 93 % 1008,0 hPa 0,2 l/m 0 min 2 min 0 W/m 6,4 km/h (2 Bft) 91,49 %
24.06.2022 03:12 20,9 C 20,0 C 16,1 C 93 % 1008,0 hPa 0,0 l/m 0 min 2 min 0 W/m 16,1 km/h (3 Bft) 93,62 %
24.06.2022 03:14 20,9 C 20,0 C 16,1 C 93 % 1008,0 hPa 0,0 l/m 0 min 2 min 0 W/m 6,4 km/h (2 Bft) 93,62 %
24.06.2022 03:16 20,9 C 20,0 C 16,1 C 93 % 1007,9 hPa 0,0 l/m 0 min 2 min 0 W/m 6,4 km/h (2 Bft) 93,48 %
24.06.2022 03:18 20,9 C 20,0 C 16,1 C 93 % 1007,8 hPa 0,2 l/m 0 min 2 min 0 W/m 6,4 km/h (2 Bft) 93,62 %
24.06.2022 03:20 20,9 C 20,0 C 16,1 C 94 % 1007,7 hPa 0,2 l/m 0 min 2 min 0 W/m 12,9 km/h (3 Bft) 93,62 %
24.06.2022 03:22 20,9 C 19,4 C 16,1 C 94 % 1007,5 hPa 0,2 l/m 0 min 2 min 0 W/m 9,7 km/h (2 Bft) 93,62 %
24.06.2022 03:24 20,9 C 19,4 C 16,1 C 94 % 1007,4 hPa 0,0 l/m 0 min 2 min 0 W/m 3,2 km/h (1 Bft) 93,62 %
24.06.2022 03:26 21,0 C 19,4 C 16,1 C 94 % 1007,3 hPa 0,2 l/m 0 min 2 min 0 W/m 3,2 km/h (1 Bft) 93,62 %
24.06.2022 03:28 20,9 C 19,4 C 16,1 C 94 % 1007,1 hPa 0,2 l/m 0 min 2 min 0 W/m 3,2 km/h (1 Bft) 95,65 %
24.06.2022 03:30 20,9 C 18,9 C 15,6 C 94 % 1007,0 hPa 0,0 l/m 0 min 2 min 0 W/m 9,7 km/h (2 Bft) 97,87 %
24.06.2022 03:32 20,8 C 18,9 C 15,6 C 94 % 1007,0 hPa 0,0 l/m 0 min 2 min 0 W/m 6,4 km/h (2 Bft) 97,87 %
24.06.2022 03:34 20,8 C 18,9 C 15,6 C 94 % 1007,0 hPa 0,2 l/m 0 min 2 min 0 W/m 6,4 km/h (2 Bft) 97,87 %
24.06.2022 03:36 20,7 C 18,9 C 15,6 C 95 % 1007,1 hPa 0,0 l/m 0 min 2 min 0 W/m 6,4 km/h (2 Bft) 96,55 %
24.06.2022 03:38 20,6 C 18,9 C 16,1 C 94 % 1007,1 hPa 0,0 l/m 0 min 2 min 0 W/m 9,7 km/h (2 Bft) 100,00 %
24.06.2022 03:40 20,6 C 18,9 C 15,6 C 95 % 1007,1 hPa 0,2 l/m 0 min 2 min 0 W/m 9,7 km/h (2 Bft) 95,65 %
24.06.2022 03:42 20,6 C 18,9 C 16,1 C 95 % 1007,0 hPa 0,0 l/m 0 min 2 min 0 W/m 3,2 km/h (1 Bft) 97,87 %
24.06.2022 03:44 20,6 C 18,9 C 16,1 C 95 % 1007,0 hPa 0,0 l/m 0 min 2 min 0 W/m 9,7 km/h (2 Bft) 95,74 %
24.06.2022 03:46 20,6 C 18,9 C 15,6 C 95 % 1006,9 hPa 0,0 l/m 0 min 2 min 0 W/m 3,2 km/h (1 Bft) 97,87 %
24.06.2022 03:48 20,5 C 18,9 C 16,1 C 95 % 1006,8 hPa 0,0 l/m 0 min 2 min 0 W/m 12,9 km/h (3 Bft) 95,74 %
24.06.2022 03:50 20,4 C 18,9 C 15,6 C 95 % 1006,9 hPa 0,0 l/m 0 min 2 min 0 W/m 12,9 km/h (3 Bft) 97,87 %
24.06.2022 03:52 20,4 C 18,9 C 15,6 C 95 % 1006,9 hPa 0,0 l/m 0 min 2 min 0 W/m 6,4 km/h (2 Bft) 97,83 %
24.06.2022 03:54 20,4 C 18,9 C 15,6 C 96 % 1006,8 hPa 0,0 l/m 0 min 2 min 0 W/m 6,4 km/h (2 Bft) 97,87 %
24.06.2022 03:56 20,4 C 18,9 C 15,6 C 96 % 1006,8 hPa 0,0 l/m 0 min 2 min 0 W/m 12,9 km/h (3 Bft) 100,00 %
24.06.2022 03:58 20,3 C 18,9 C 15,6 C 96 % 1006,8 hPa 0,0 l/m 0 min 2 min 0 W/m 6,4 km/h (2 Bft) 97,87 %
24.06.2022 04:00 20,3 C 18,9 C 15,6 C 96 % 1006,8 hPa 0,0 l/m 0 min 2 min 0 W/m 3,2 km/h (1 Bft) 100,00 %
24.06.2022 04:02 20,3 C 18,9 C 15,6 C 96 % 1006,8 hPa 0,0 l/m 0 min 2 min 0 W/m 0,0 km/h (0 Bft) 100,00 %
24.06.2022 04:04 20,3 C 18,9 C 15,6 C 96 % 1006,9 hPa 0,0 l/m 0 min 0 min 0 W/m 3,2 km/h (1 Bft) 100,00 %
24.06.2022 04:06 20,2 C 18,9 C 15,6 C 96 % 1007,1 hPa 0,0 l/m 0 min 2 min 0 W/m 3,2 km/h (1 Bft) 100,00 %
24.06.2022 04:08 20,2 C 18,9 C 16,1 C 96 % 1007,2 hPa 0,0 l/m 0 min 2 min 0 W/m 3,2 km/h (1 Bft) 100,00 %
24.06.2022 04:10 20,2 C 18,9 C 16,1 C 96 % 1007,1 hPa 0,2 l/m 0 min 2 min 0 W/m 6,4 km/h (2 Bft) 100,00 %
24.06.2022 04:12 20,2 C 18,9 C 15,6 C 96 % 1007,1 hPa 0,0 l/m 0 min 2 min 0 W/m 6,4 km/h (2 Bft) 91,49 %
24.06.2022 04:14 20,2 C 18,9 C 16,1 C 96 % 1007,1 hPa 0,0 l/m 0 min 2 min 0 W/m 3,2 km/h (1 Bft) 60,47 %
24.06.2022 04:16 20,2 C 18,9 C 15,6 C 96 % 1007,2 hPa 0,0 l/m 0 min 2 min 0 W/m 3,2 km/h (1 Bft) 100,00 %
24.06.2022 04:18 20,2 C 18,9 C 15,6 C 96 % 1007,4 hPa 0,0 l/m 0 min 2 min 0 W/m 3,2 km/h (1 Bft) 97,87 %
24.06.2022 04:20 20,2 C 18,9 C 15,6 C 96 % 1007,4 hPa 0,0 l/m 0 min 2 min 0 W/m 3,2 km/h (1 Bft) 100,00 %
24.06.2022 04:22 20,2 C 18,9 C 15,6 C 96 % 1007,3 hPa 0,0 l/m 0 min 0 min 0 W/m 6,4 km/h (2 Bft) 100,00 %
24.06.2022 04:24 20,2 C 18,9 C 15,6 C 96 % 1007,2 hPa 0,0 l/m 0 min 2 min 0 W/m 9,7 km/h (2 Bft) 97,87 %
24.06.2022 04:26 20,2 C 18,9 C 16,1 C 96 % 1007,2 hPa 0,0 l/m 0 min 2 min 0 W/m 3,2 km/h (1 Bft) 97,87 %
24.06.2022 04:28 20,2 C 18,9 C 16,1 C 96 % 1007,2 hPa 0,0 l/m 0 min 2 min 0 W/m 9,7 km/h (2 Bft) 100,00 %
24.06.2022 04:30 20,2 C 18,9 C 15,6 C 96 % 1007,2 hPa 0,0 l/m 0 min 2 min 0 W/m 9,7 km/h (2 Bft) 100,00 %
24.06.2022 04:32 20,2 C 18,9 C 16,1 C 96 % 1007,2 hPa 0,0 l/m 0 min 0 min 0 W/m 9,7 km/h (2 Bft) 100,00 %
24.06.2022 04:34 20,2 C 18,9 C 15,6 C 96 % 1007,2 hPa 0,0 l/m 0 min 0 min 0 W/m 12,9 km/h (3 Bft) 100,00 %
24.06.2022 04:36 20,1 C 18,9 C 15,6 C 96 % 1007,1 hPa 0,0 l/m 0 min 0 min 0 W/m 9,7 km/h (2 Bft) 100,00 %
24.06.2022 04:38 20,1 C 18,9 C 15,6 C 96 % 1007,1 hPa 0,0 l/m 0 min 0 min 0 W/m 6,4 km/h (2 Bft) 100,00 %
24.06.2022 04:40 20,1 C 18,9 C 16,1 C 97 % 1007,1 hPa 0,0 l/m 0 min 0 min 0 W/m 6,4 km/h (2 Bft) 97,83 %
24.06.2022 04:42 20,1 C 18,9 C 16,1 C 97 % 1007,0 hPa 0,0 l/m 0 min 0 min 0 W/m 3,2 km/h (1 Bft) 97,87 %
24.06.2022 04:44 20,1 C 18,9 C 15,6 C 97 % 1007,0 hPa 0,0 l/m 0 min 2 min 0 W/m 6,4 km/h (2 Bft) 97,87 %
24.06.2022 04:46 20,1 C 18,9 C 15,6 C 97 % 1006,9 hPa 0,2 l/m 0 min 2 min 0 W/m 6,4 km/h (2 Bft) 100,00 %
24.06.2022 04:48 20,2 C 18,9 C 15,6 C 97 % 1006,8 hPa 0,0 l/m 0 min 2 min 0 W/m 3,2 km/h (1 Bft) 97,87 %
24.06.2022 04:50 20,2 C 18,9 C 15,6 C 97 % 1006,7 hPa 0,0 l/m 0 min 2 min 0 W/m 3,2 km/h (1 Bft) 97,87 %
24.06.2022 04:52 20,2 C 18,9 C 15,6 C 97 % 1006,7 hPa 0,0 l/m 0 min 2 min 0 W/m 0,0 km/h (0 Bft) 97,83 %
24.06.2022 04:54 20,2 C 18,9 C 16,1 C 97 % 1006,7 hPa 0,0 l/m 0 min 2 min 0 W/m 3,2 km/h (1 Bft) 97,87 %
24.06.2022 04:56 20,2 C 18,9 C 15,6 C 97 % 1006,7 hPa 0,0 l/m 0 min 0 min 0 W/m 3,2 km/h (1 Bft) 97,87 %
24.06.2022 04:58 20,2 C 18,9 C 15,6 C 97 % 1006,7 hPa 0,0 l/m 0 min 0 min 0 W/m 0,0 km/h (0 Bft) 95,74 %
24.06.2022 05:00 20,1 C 18,9 C 15,6 C 97 % 1006,6 hPa 0,0 l/m 0 min 0 min 0 W/m 6,4 km/h (2 Bft) 97,87 %
24.06.2022 05:02 20,1 C 18,9 C 15,6 C 97 % 1006,7 hPa 0,0 l/m 0 min 0 min 0 W/m 6,4 km/h (2 Bft) 97,87 %
24.06.2022 05:04 20,1 C 18,9 C 15,6 C 97 % 1006,7 hPa 0,0 l/m 0 min 2 min 0 W/m 3,2 km/h (1 Bft) 95,65 %
24.06.2022 05:06 20,1 C 18,9 C 15,6 C 97 % 1006,7 hPa 0,0 l/m 0 min 0 min 0 W/m 3,2 km/h (1 Bft) 96,61 %
24.06.2022 05:08 20,1 C 18,9 C 15,6 C 97 % 1006,7 hPa 0,0 l/m 0 min 0 min 0 W/m 3,2 km/h (1 Bft) 97,14 %
24.06.2022 05:10 20,1 C 18,9 C 15,6 C 97 % 1006,6 hPa 0,0 l/m 0 min 0 min 0 W/m 3,2 km/h (1 Bft) 97,87 %
24.06.2022 05:12 20,0 C 18,9 C 15,6 C 97 % 1006,5 hPa 0,0 l/m 0 min 0 min 0 W/m 6,4 km/h (2 Bft) 95,74 %
24.06.2022 05:14 20,0 C 18,9 C 15,6 C 97 % 1006,5 hPa 0,0 l/m 0 min 0 min 0 W/m 3,2 km/h (1 Bft) 97,87 %
24.06.2022 05:16 20,0 C 18,9 C 15,6 C 97 % 1006,5 hPa 0,0 l/m 0 min 0 min 0 W/m 3,2 km/h (1 Bft) 97,83 %
24.06.2022 05:18 20,0 C 18,9 C 15,6 C 97 % 1006,4 hPa 0,0 l/m 0 min 0 min 0 W/m 3,2 km/h (1 Bft) 95,74 %
24.06.2022 05:20 20,0 C 18,9 C 15,6 C 97 % 1006,4 hPa 0,0 l/m 0 min 0 min 0 W/m 6,4 km/h (2 Bft) 100,00 %
24.06.2022 05:22 20,0 C 18,9 C 15,6 C 97 % 1006,4 hPa 0,0 l/m 0 min 0 min 0 W/m 3,2 km/h (1 Bft) 100,00 %
24.06.2022 05:24 19,9 C 18,9 C 15,6 C 97 % 1006,4 hPa 0,0 l/m 0 min 0 min 0 W/m 3,2 km/h (1 Bft) 100,00 %
24.06.2022 05:26 19,9 C 18,9 C 15,6 C 97 % 1006,5 hPa 0,0 l/m 0 min 2 min 0 W/m 6,4 km/h (2 Bft) 97,87 %
24.06.2022 05:28 19,9 C 18,9 C 15,6 C 97 % 1006,6 hPa 0,0 l/m 0 min 0 min 0 W/m 3,2 km/h (1 Bft) 97,83 %
24.06.2022 05:30 19,9 C 18,9 C 15,6 C 97 % 1006,6 hPa 0,0 l/m 0 min 0 min 0 W/m 0,0 km/h (0 Bft) 97,87 %
24.06.2022 05:32 19,9 C 18,9 C 15,6 C 97 % 1006,7 hPa 0,0 l/m 0 min 0 min 0 W/m 0,0 km/h (0 Bft) 95,74 %
24.06.2022 05:34 19,9 C 18,9 C 15,6 C 97 % 1006,6 hPa 0,0 l/m 0 min 0 min 0 W/m 3,2 km/h (1 Bft) 97,87 %
24.06.2022 05:36 19,9 C 18,9 C 15,6 C 97 % 1006,6 hPa 0,0 l/m 0 min 0 min 0 W/m 3,2 km/h (1 Bft) 97,87 %
24.06.2022 05:38 19,9 C 18,9 C 15,6 C 97 % 1006,6 hPa 0,0 l/m 0 min 0 min 0 W/m 3,2 km/h (1 Bft) 97,87 %
24.06.2022 05:40 19,8 C 18,9 C 15,6 C 97 % 1006,5 hPa 0,0 l/m 0 min 0 min 0 W/m 3,2 km/h (1 Bft) 97,83 %
24.06.2022 05:42 19,8 C 18,9 C 15,6 C 97 % 1006,5 hPa 0,0 l/m 0 min 0 min 0 W/m 3,2 km/h (1 Bft) 97,87 %
24.06.2022 05:44 19,8 C 18,9 C 15,6 C 97 % 1006,6 hPa 0,0 l/m 0 min 0 min 0 W/m 3,2 km/h (1 Bft) 97,87 %
24.06.2022 05:46 19,8 C 18,9 C 15,6 C 97 % 1006,6 hPa 0,0 l/m 0 min 0 min 0 W/m 6,4 km/h (2 Bft) 97,87 %
24.06.2022 05:48 19,8 C 18,9 C 15,6 C 97 % 1006,6 hPa 0,0 l/m 0 min 0 min 0 W/m 3,2 km/h (1 Bft) 97,87 %
24.06.2022 05:50 19,8 C 18,9 C 15,6 C 97 % 1006,6 hPa 0,0 l/m 0 min 0 min 0 W/m 6,4 km/h (2 Bft) 95,74 %
24.06.2022 05:52 19,7 C 18,9 C 15,0 C 97 % 1006,6 hPa 0,0 l/m 0 min 0 min 0 W/m 6,4 km/h (2 Bft) 95,65 %
24.06.2022 05:54 19,7 C 18,9 C 15,6 C 97 % 1006,6 hPa 0,0 l/m 0 min 0 min 5 W/m 3,2 km/h (1 Bft) 95,74 %
24.06.2022 05:56 19,7 C 18,9 C 15,6 C 97 % 1006,5 hPa 0,0 l/m 0 min 0 min 6 W/m 6,4 km/h (2 Bft) 95,74 %
24.06.2022 05:58 19,7 C 18,9 C 15,6 C 97 % 1006,5 hPa 0,0 l/m 0 min 0 min 10 W/m 3,2 km/h (1 Bft) 93,62 %
24.06.2022 06:00 19,7 C 18,9 C 15,6 C 97 % 1006,6 hPa 0,0 l/m 0 min 0 min 11 W/m 3,2 km/h (1 Bft) 95,74 %
24.06.2022 06:02 19,7 C 18,9 C 15,6 C 97 % 1006,6 hPa 0,0 l/m 0 min 0 min 9 W/m 6,4 km/h (2 Bft) 95,74 %
24.06.2022 06:04 19,6 C 18,9 C 15,0 C 97 % 1006,6 hPa 0,0 l/m 0 min 0 min 9 W/m 3,2 km/h (1 Bft) 95,65 %
24.06.2022 06:08 19,6 C 18,9 C 15,0 C 97 % 1006,6 hPa 0,0 l/m 0 min 0 min 9 W/m 6,4 km/h (2 Bft) 95,24 %
24.06.2022 06:10 19,5 C 18,9 C 15,0 C 97 % 1006,5 hPa 0,0 l/m 0 min 0 min 9 W/m 6,4 km/h (2 Bft) 97,87 %
24.06.2022 06:12 19,5 C 18,9 C 15,0 C 97 % 1006,5 hPa 0,0 l/m 0 min 0 min 10 W/m 6,4 km/h (2 Bft) 89,36 %
24.06.2022 06:14 19,5 C 18,9 C 15,0 C 97 % 1006,5 hPa 0,0 l/m 0 min 0 min 11 W/m 6,4 km/h (2 Bft) 95,74 %
24.06.2022 06:16 19,4 C 18,9 C 15,0 C 97 % 1006,5 hPa 0,0 l/m 0 min 0 min 12 W/m 3,2 km/h (1 Bft) 93,62 %
24.06.2022 06:18 19,4 C 18,9 C 15,0 C 97 % 1006,5 hPa 0,0 l/m 0 min 0 min 12 W/m 0,0 km/h (0 Bft) 95,74 %
24.06.2022 06:20 19,5 C 18,9 C 15,0 C 97 % 1006,6 hPa 0,0 l/m 0 min 0 min 12 W/m 3,2 km/h (1 Bft) 97,83 %
24.06.2022 06:22 19,5 C 18,9 C 15,0 C 97 % 1006,6 hPa 0,0 l/m 0 min 0 min 12 W/m 0,0 km/h (0 Bft) 97,87 %
24.06.2022 06:24 19,5 C 18,9 C 15,6 C 97 % 1006,6 hPa 0,0 l/m 0 min 0 min 11 W/m 3,2 km/h (1 Bft) 97,87 %
24.06.2022 06:26 19,5 C 18,9 C 15,6 C 97 % 1006,6 hPa 0,0 l/m 0 min 0 min 11 W/m 3,2 km/h (1 Bft) 95,74 %
24.06.2022 06:28 19,5 C 18,9 C 15,0 C 97 % 1006,6 hPa 0,0 l/m 0 min 0 min 11 W/m 3,2 km/h (1 Bft) 95,74 %
24.06.2022 06:30 19,5 C 18,9 C 15,0 C 97 % 1006,7 hPa 0,0 l/m 0 min 0 min 9 W/m 3,2 km/h (1 Bft) 97,87 %
24.06.2022 06:32 19,4 C 18,9 C 15,0 C 97 % 1006,7 hPa 0,0 l/m 0 min 0 min 7 W/m 3,2 km/h (1 Bft) 97,83 %
24.06.2022 06:34 19,4 C 18,9 C 15,0 C 97 % 1006,6 hPa 0,0 l/m 0 min 0 min 7 W/m 3,2 km/h (1 Bft) 95,74 %
24.06.2022 06:36 19,4 C 18,9 C 15,0 C 97 % 1006,7 hPa 0,0 l/m 0 min 0 min 7 W/m 0,0 km/h (0 Bft) 95,74 %
24.06.2022 06:38 19,4 C 18,9 C 15,0 C 97 % 1006,7 hPa 0,0 l/m 0 min 0 min 7 W/m 0,0 km/h (0 Bft) 95,74 %
24.06.2022 06:40 19,4 C 18,9 C 15,6 C 97 % 1006,7 hPa 0,0 l/m 0 min 0 min 7 W/m 0,0 km/h (0 Bft) 95,74 %
24.06.2022 06:42 19,5 C 18,9 C 15,6 C 97 % 1006,7 hPa 0,0 l/m 0 min 0 min 7 W/m 0,0 km/h (0 Bft) 95,74 %
24.06.2022 06:44 19,5 C 18,9 C 15,0 C 97 % 1006,7 hPa 0,0 l/m 0 min 0 min 9 W/m 3,2 km/h (1 Bft) 95,65 %
24.06.2022 06:46 19,5 C 18,9 C 15,0 C 97 % 1006,6 hPa 0,0 l/m 0 min 0 min 10 W/m 3,2 km/h (1 Bft) 97,87 %
24.06.2022 06:48 19,5 C 18,9 C 15,0 C 97 % 1006,7 hPa 0,0 l/m 0 min 0 min 10 W/m 6,4 km/h (2 Bft) 97,87 %
24.06.2022 06:50 19,5 C 18,9 C 15,0 C 97 % 1006,6 hPa 0,0 l/m 0 min 0 min 9 W/m 3,2 km/h (1 Bft) 97,87 %
24.06.2022 06:52 19,4 C 18,9 C 15,0 C 97 % 1006,7 hPa 0,0 l/m 0 min 0 min 9 W/m 3,2 km/h (1 Bft) 95,74 %
24.06.2022 06:54 19,4 C 18,9 C 15,0 C 97 % 1006,7 hPa 0,0 l/m 0 min 0 min 8 W/m 6,4 km/h (2 Bft) 97,87 %
24.06.2022 06:56 19,4 C 18,9 C 15,0 C 97 % 1006,7 hPa 0,0 l/m 0 min 0 min 9 W/m 3,2 km/h (1 Bft) 97,83 %
24.06.2022 06:58 19,4 C 18,9 C 15,6 C 97 % 1006,7 hPa 0,0 l/m 0 min 0 min 9 W/m 6,4 km/h (2 Bft) 97,87 %
24.06.2022 07:00 19,4 C 18,9 C 15,0 C 97 % 1006,8 hPa 0,0 l/m 0 min 0 min 9 W/m 3,2 km/h (1 Bft) 97,87 %
24.06.2022 07:02 19,5 C 18,9 C 15,0 C 97 % 1006,8 hPa 0,0 l/m 0 min 0 min 10 W/m 3,2 km/h (1 Bft) 93,62 %
24.06.2022 07:04 19,5 C 18,9 C 15,0 C 97 % 1006,8 hPa 0,0 l/m 0 min 0 min 11 W/m 6,4 km/h (2 Bft) 97,87 %
24.06.2022 07:06 19,4 C 18,9 C 15,0 C 97 % 1006,9 hPa 0,0 l/m 0 min 0 min 11 W/m 3,2 km/h (1 Bft) 97,87 %
24.06.2022 07:08 19,4 C 18,9 C 15,0 C 97 % 1006,9 hPa 0,0 l/m 0 min 0 min 11 W/m 3,2 km/h (1 Bft) 97,87 %
24.06.2022 07:10 19,4 C 18,9 C 15,0 C 97 % 1006,9 hPa 0,0 l/m 0 min 0 min 12 W/m 3,2 km/h (1 Bft) 95,74 %
24.06.2022 07:12 19,4 C 18,9 C 15,0 C 97 % 1006,8 hPa 0,0 l/m 0 min 0 min 18 W/m 6,4 km/h (2 Bft) 95,65 %
24.06.2022 07:14 19,4 C 18,9 C 15,0 C 97 % 1006,8 hPa 0,0 l/m 0 min 0 min 24 W/m 3,2 km/h (1 Bft) 100,00 %
24.06.2022 07:16 19,4 C 18,9 C 15,0 C 97 % 1006,7 hPa 0,0 l/m 0 min 0 min 26 W/m 6,4 km/h (2 Bft) 97,87 %
24.06.2022 07:18 19,3 C 18,9 C 15,0 C 97 % 1006,8 hPa 0,0 l/m 0 min 0 min 26 W/m 3,2 km/h (1 Bft) 100,00 %
24.06.2022 07:20 19,3 C 18,9 C 15,0 C 97 % 1006,7 hPa 0,0 l/m 0 min 0 min 27 W/m 3,2 km/h (1 Bft) 97,87 %
24.06.2022 07:22 19,3 C 18,9 C 15,0 C 97 % 1006,7 hPa 0,0 l/m 0 min 0 min 30 W/m 0,0 km/h (0 Bft) 100,00 %
24.06.2022 07:24 19,3 C 18,9 C 15,0 C 97 % 1006,7 hPa 0,0 l/m 0 min 0 min 33 W/m 3,2 km/h (1 Bft) 100,00 %
24.06.2022 07:26 19,3 C 18,9 C 15,0 C 97 % 1006,7 hPa 0,0 l/m 0 min 0 min 40 W/m 0,0 km/h (0 Bft) 97,87 %
24.06.2022 07:28 19,3 C 18,9 C 15,0 C 97 % 1006,7 hPa 0,0 l/m 0 min 0 min 42 W/m 0,0 km/h (0 Bft) 100,00 %
24.06.2022 07:30 19,3 C 18,9 C 15,0 C 97 % 1006,7 hPa 0,0 l/m 0 min 0 min 39 W/m 0,0 km/h (0 Bft) 100,00 %
24.06.2022 07:32 19,3 C 18,9 C 15,0 C 97 % 1006,8 hPa 0,0 l/m 0 min 0 min 33 W/m 0,0 km/h (0 Bft) 100,00 %
24.06.2022 07:34 19,3 C 18,9 C 15,0 C 97 % 1006,8 hPa 0,0 l/m 0 min 0 min 30 W/m 0,0 km/h (0 Bft) 97,87 %
24.06.2022 07:36 19,4 C 18,9 C 15,0 C 97 % 1006,8 hPa 0,0 l/m 0 min 0 min 32 W/m 0,0 km/h (0 Bft) 100,00 %
24.06.2022 07:38 19,4 C 18,9 C 15,0 C 97 % 1006,8 hPa 0,0 l/m 0 min 0 min 34 W/m 3,2 km/h (1 Bft) 100,00 %
24.06.2022 07:40 19,4 C 18,9 C 15,0 C 97 % 1006,8 hPa 0,0 l/m 0 min 0 min 37 W/m 0,0 km/h (0 Bft) 100,00 %
24.06.2022 07:42 19,4 C 18,9 C 15,0 C 97 % 1006,8 hPa 0,0 l/m 0 min 0 min 33 W/m 0,0 km/h (0 Bft) 100,00 %
24.06.2022 07:44 19,4 C 18,9 C 15,0 C 97 % 1006,8 hPa 0,0 l/m 0 min 0 min 29 W/m 3,2 km/h (1 Bft) 100,00 %
24.06.2022 07:46 19,4 C 18,9 C 15,0 C 97 % 1006,8 hPa 0,0 l/m 0 min 0 min 25 W/m 3,2 km/h (1 Bft) 97,87 %
24.06.2022 07:48 19,4 C 18,9 C 15,0 C 97 % 1006,7 hPa 0,0 l/m 0 min 0 min 25 W/m 3,2 km/h (1 Bft) 100,00 %
24.06.2022 07:50 19,4 C 18,9 C 15,0 C 97 % 1006,7 hPa 0,0 l/m 0 min 0 min 25 W/m 3,2 km/h (1 Bft) 100,00 %
24.06.2022 07:52 19,4 C 18,9 C 15,0 C 97 % 1006,7 hPa 0,0 l/m 0 min 0 min 23 W/m 3,2 km/h (1 Bft) 100,00 %
24.06.2022 07:54 19,4 C 18,9 C 15,0 C 97 % 1006,7 hPa 0,0 l/m 0 min 0 min 19 W/m 3,2 km/h (1 Bft) 100,00 %
24.06.2022 07:56 19,4 C 18,9 C 15,0 C 97 % 1006,8 hPa 0,0 l/m 0 min 0 min 15 W/m 3,2 km/h (1 Bft) 97,87 %
24.06.2022 07:58 19,4 C 18,9 C 15,0 C 97 % 1006,8 hPa 0,0 l/m 0 min 0 min 12 W/m 6,4 km/h (2 Bft) 100,00 %
24.06.2022 08:00 19,3 C 18,9 C 14,4 C 96 % 1006,9 hPa 0,0 l/m 0 min 0 min 11 W/m 3,2 km/h (1 Bft) 100,00 %
24.06.2022 08:02 19,3 C 18,9 C 14,4 C 96 % 1006,9 hPa 0,0 l/m 0 min 0 min 11 W/m 3,2 km/h (1 Bft) 97,87 %
24.06.2022 08:04 19,3 C 18,9 C 15,0 C 96 % 1006,9 hPa 0,0 l/m 0 min 0 min 11 W/m 0,0 km/h (0 Bft) 100,00 %
24.06.2022 08:06 19,3 C 18,3 C 15,0 C 96 % 1006,8 hPa 0,0 l/m 0 min 0 min 11 W/m 6,4 km/h (2 Bft) 100,00 %
24.06.2022 08:08 19,3 C 18,3 C 14,4 C 96 % 1006,8 hPa 0,0 l/m 0 min 0 min 11 W/m 3,2 km/h (1 Bft) 97,87 %
24.06.2022 08:10 19,3 C 18,3 C 14,4 C 96 % 1006,8 hPa 0,0 l/m 0 min 0 min 12 W/m 3,2 km/h (1 Bft) 100,00 %
24.06.2022 08:12 19,3 C 18,3 C 15,0 C 96 % 1006,8 hPa 0,0 l/m 0 min 0 min 12 W/m 6,4 km/h (2 Bft) 95,65 %
24.06.2022 08:14 19,3 C 18,3 C 15,0 C 96 % 1006,8 hPa 0,0 l/m 0 min 0 min 12 W/m 3,2 km/h (1 Bft) 100,00 %
24.06.2022 08:16 19,3 C 18,3 C 15,0 C 96 % 1006,8 hPa 0,0 l/m 0 min 0 min 11 W/m 6,4 km/h (2 Bft) 100,00 %
24.06.2022 08:18 19,3 C 18,3 C 15,0 C 96 % 1006,8 hPa 0,0 l/m 0 min 2 min 11 W/m 3,2 km/h (1 Bft) 100,00 %
24.06.2022 08:20 19,3 C 18,3 C 15,0 C 96 % 1006,8 hPa 0,0 l/m 0 min 2 min 12 W/m 3,2 km/h (1 Bft) 97,87 %
24.06.2022 08:22 19,3 C 18,3 C 15,0 C 96 % 1006,8 hPa 0,0 l/m 0 min 0 min 13 W/m 3,2 km/h (1 Bft) 97,87 %
24.06.2022 08:24 19,3 C 18,3 C 15,0 C 97 % 1006,8 hPa 0,0 l/m 0 min 0 min 14 W/m 3,2 km/h (1 Bft) 97,83 %
24.06.2022 08:26 19,2 C 18,3 C 15,0 C 96 % 1006,8 hPa 0,0 l/m 0 min 2 min 15 W/m 6,4 km/h (2 Bft) 97,87 %
24.06.2022 08:28 19,3 C 18,3 C 15,0 C 97 % 1006,9 hPa 0,2 l/m 0 min 2 min 19 W/m 6,4 km/h (2 Bft) 93,62 %
24.06.2022 08:30 19,3 C 18,3 C 15,0 C 97 % 1006,9 hPa 0,0 l/m 0 min 2 min 24 W/m 3,2 km/h (1 Bft) 97,87 %
24.06.2022 08:32 19,3 C 18,3 C 15,0 C 97 % 1006,9 hPa 0,4 l/m 0 min 2 min 29 W/m 3,2 km/h (1 Bft) 97,87 %
24.06.2022 08:34 19,3 C 17,8 C 15,0 C 97 % 1006,8 hPa 0,6 l/m 0 min 2 min 33 W/m 6,4 km/h (2 Bft) 95,74 %
24.06.2022 08:36 19,2 C 17,8 C 14,4 C 97 % 1006,9 hPa 0,4 l/m 0 min 2 min 35 W/m 6,4 km/h (2 Bft) 95,65 %
24.06.2022 08:38 19,2 C 17,8 C 14,4 C 97 % 1006,9 hPa 0,2 l/m 0 min 2 min 39 W/m 6,4 km/h (2 Bft) 93,62 %
24.06.2022 08:40 19,2 C 17,8 C 15,0 C 97 % 1006,8 hPa 0,2 l/m 0 min 2 min 54 W/m 12,9 km/h (3 Bft) 95,74 %
24.06.2022 08:42 19,1 C 17,8 C 14,4 C 97 % 1006,7 hPa 0,0 l/m 0 min 2 min 72 W/m 6,4 km/h (2 Bft) 95,74 %
24.06.2022 08:44 19,1 C 17,8 C 15,0 C 97 % 1006,7 hPa 0,2 l/m 0 min 2 min 82 W/m 9,7 km/h (2 Bft) 95,74 %
24.06.2022 08:46 19,1 C 17,8 C 15,0 C 97 % 1006,7 hPa 0,0 l/m 0 min 2 min 88 W/m 6,4 km/h (2 Bft) 95,74 %
24.06.2022 08:48 19,1 C 17,8 C 15,0 C 97 % 1006,6 hPa 0,2 l/m 0 min 2 min 94 W/m 12,9 km/h (3 Bft) 95,65 %
24.06.2022 08:50 19,1 C 17,8 C 15,0 C 97 % 1006,6 hPa 0,2 l/m 0 min 2 min 91 W/m 12,9 km/h (3 Bft) 91,49 %
24.06.2022 08:52 19,1 C 17,8 C 15,0 C 97 % 1006,6 hPa 0,2 l/m 0 min 2 min 82 W/m 6,4 km/h (2 Bft) 95,74 %
24.06.2022 08:54 19,1 C 17,8 C 15,0 C 97 % 1006,6 hPa 0,0 l/m 0 min 2 min 84 W/m 9,7 km/h (2 Bft) 93,62 %
24.06.2022 08:56 19,1 C 17,8 C 15,0 C 97 % 1006,6 hPa 0,0 l/m 0 min 2 min 104 W/m 9,7 km/h (2 Bft) 91,49 %
24.06.2022 08:58 19,1 C 17,8 C 15,0 C 97 % 1006,5 hPa 0,0 l/m 0 min 0 min 110 W/m 6,4 km/h (2 Bft) 91,49 %
24.06.2022 09:00 19,1 C 17,8 C 15,0 C 97 % 1006,5 hPa 0,0 l/m 0 min 0 min 107 W/m 6,4 km/h (2 Bft) 93,48 %
24.06.2022 09:02 19,1 C 17,8 C 15,0 C 98 % 1006,5 hPa 0,0 l/m 0 min 0 min 107 W/m 3,2 km/h (1 Bft) 91,49 %
24.06.2022 09:04 19,1 C 17,8 C 15,0 C 98 % 1006,6 hPa 0,0 l/m 0 min 0 min 105 W/m 12,9 km/h (3 Bft) 91,49 %
24.06.2022 09:06 19,1 C 18,3 C 15,0 C 98 % 1006,5 hPa 0,0 l/m 0 min 0 min 100 W/m 6,4 km/h (2 Bft) 95,74 %
24.06.2022 09:08 19,1 C 18,3 C 15,0 C 98 % 1006,5 hPa 0,0 l/m 0 min 0 min 92 W/m 9,7 km/h (2 Bft) 97,87 %
24.06.2022 09:10 19,1 C 18,3 C 15,0 C 98 % 1006,6 hPa 0,0 l/m 0 min 0 min 82 W/m 9,7 km/h (2 Bft) 97,87 %
24.06.2022 09:12 19,1 C 18,3 C 15,0 C 98 % 1006,7 hPa 0,0 l/m 0 min 0 min 70 W/m 3,2 km/h (1 Bft) 100,00 %
24.06.2022 09:14 19,1 C 18,3 C 15,0 C 98 % 1006,8 hPa 0,0 l/m 0 min 0 min 62 W/m 6,4 km/h (2 Bft) 97,87 %
24.06.2022 09:16 19,1 C 18,3 C 15,0 C 98 % 1006,8 hPa 0,0 l/m 0 min 2 min 53 W/m 3,2 km/h (1 Bft) 97,87 %
24.06.2022 09:18 19,1 C 18,3 C 15,0 C 98 % 1006,9 hPa 0,0 l/m 0 min 2 min 47 W/m 6,4 km/h (2 Bft) 97,87 %
24.06.2022 09:20 19,1 C 18,3 C 15,0 C 98 % 1006,9 hPa 0,0 l/m 0 min 2 min 40 W/m 6,4 km/h (2 Bft) 97,87 %
24.06.2022 09:22 19,1 C 17,8 C 15,0 C 98 % 1006,9 hPa 0,0 l/m 0 min 2 min 33 W/m 3,2 km/h (1 Bft) 95,74 %
24.06.2022 09:24 19,1 C 17,8 C 15,0 C 98 % 1007,0 hPa 0,2 l/m 0 min 2 min 32 W/m 16,1 km/h (3 Bft) 97,83 %
24.06.2022 09:26 19,0 C 17,8 C 14,4 C 98 % 1007,1 hPa 0,0 l/m 0 min 2 min 30 W/m 12,9 km/h (3 Bft) 95,74 %
24.06.2022 09:28 18,9 C 17,8 C 14,4 C 98 % 1007,1 hPa 0,2 l/m 0 min 2 min 32 W/m 9,7 km/h (2 Bft) 97,87 %
24.06.2022 09:30 18,8 C 17,8 C 14,4 C 97 % 1007,1 hPa 0,0 l/m 0 min 2 min 33 W/m 9,7 km/h (2 Bft) 97,87 %
24.06.2022 09:32 18,8 C 17,2 C 14,4 C 97 % 1007,0 hPa 0,0 l/m 0 min 2 min 34 W/m 12,9 km/h (3 Bft) 97,87 %
24.06.2022 09:34 18,7 C 17,2 C 14,4 C 98 % 1007,0 hPa 0,0 l/m 0 min 2 min 35 W/m 6,4 km/h (2 Bft) 97,87 %
24.06.2022 09:36 18,7 C 17,2 C 14,4 C 98 % 1007,1 hPa 0,2 l/m 0 min 2 min 35 W/m 3,2 km/h (1 Bft) 97,83 %
24.06.2022 09:38 18,7 C 17,2 C 14,4 C 98 % 1007,0 hPa 0,0 l/m 0 min 2 min 33 W/m 6,4 km/h (2 Bft) 97,87 %
24.06.2022 09:40 18,7 C 17,2 C 14,4 C 98 % 1006,9 hPa 0,0 l/m 0 min 2 min 34 W/m 3,2 km/h (1 Bft) 100,00 %
24.06.2022 09:42 18,7 C 17,2 C 14,4 C 98 % 1006,9 hPa 0,0 l/m 0 min 2 min 35 W/m 3,2 km/h (1 Bft) 93,62 %
24.06.2022 09:44 18,6 C 17,2 C 14,4 C 98 % 1007,0 hPa 0,0 l/m 0 min 2 min 38 W/m 6,4 km/h (2 Bft) 97,87 %
24.06.2022 09:46 18,6 C 17,2 C 14,4 C 98 % 1007,0 hPa 0,0 l/m 0 min 2 min 41 W/m 3,2 km/h (1 Bft) 100,00 %
24.06.2022 09:48 18,7 C 17,8 C 14,4 C 98 % 1007,0 hPa 0,0 l/m 0 min 2 min 43 W/m 3,2 km/h (1 Bft) 100,00 %
24.06.2022 09:50 18,7 C 17,8 C 14,4 C 98 % 1007,0 hPa 0,0 l/m 0 min 2 min 47 W/m 3,2 km/h (1 Bft) 100,00 %
24.06.2022 09:52 18,7 C 17,8 C 14,4 C 98 % 1007,1 hPa 0,0 l/m 0 min 2 min 52 W/m 3,2 km/h (1 Bft) 97,87 %
24.06.2022 09:54 18,7 C 17,8 C 14,4 C 98 % 1007,0 hPa 0,0 l/m 0 min 2 min 61 W/m 3,2 km/h (1 Bft) 100,00 %
24.06.2022 09:56 18,6 C 17,8 C 14,4 C 98 % 1007,0 hPa 0,2 l/m 0 min 0 min 69 W/m 6,4 km/h (2 Bft) 97,87 %
24.06.2022 09:58 18,6 C 17,8 C 14,4 C 98 % 1007,0 hPa 0,0 l/m 0 min 0 min 80 W/m 3,2 km/h (1 Bft) 100,00 %
24.06.2022 10:00 18,6 C 17,8 C 14,4 C 98 % 1007,0 hPa 0,0 l/m 0 min 0 min 96 W/m 6,4 km/h (2 Bft) 100,00 %
24.06.2022 10:02 18,6 C 17,8 C 14,4 C 98 % 1006,9 hPa 0,0 l/m 0 min 0 min 112 W/m 6,4 km/h (2 Bft) 100,00 %
24.06.2022 10:04 18,6 C 17,8 C 14,4 C 98 % 1007,0 hPa 0,0 l/m 0 min 0 min 121 W/m 6,4 km/h (2 Bft) 100,00 %
24.06.2022 10:06 18,6 C 17,8 C 14,4 C 98 % 1007,0 hPa 0,0 l/m 0 min 0 min 121 W/m 6,4 km/h (2 Bft) 96,61 %
24.06.2022 10:08 18,6 C 17,8 C 14,4 C 98 % 1007,0 hPa 0,0 l/m 0 min 0 min 126 W/m 6,4 km/h (2 Bft) 100,00 %
24.06.2022 10:10 18,6 C 17,8 C 14,4 C 98 % 1007,0 hPa 0,0 l/m 0 min 0 min 129 W/m 6,4 km/h (2 Bft) 100,00 %
24.06.2022 10:12 18,6 C 17,8 C 14,4 C 98 % 1007,0 hPa 0,0 l/m 0 min 0 min 138 W/m 6,4 km/h (2 Bft) 97,87 %
24.06.2022 10:14 18,6 C 17,8 C 14,4 C 98 % 1007,0 hPa 0,0 l/m 0 min 0 min 153 W/m 3,2 km/h (1 Bft) 100,00 %
24.06.2022 10:16 18,7 C 17,8 C 14,4 C 98 % 1007,1 hPa 0,0 l/m 0 min 0 min 167 W/m 6,4 km/h (2 Bft) 100,00 %
24.06.2022 10:18 18,7 C 18,3 C 15,0 C 98 % 1007,1 hPa 0,0 l/m 0 min 0 min 184 W/m 3,2 km/h (1 Bft) 100,00 %
24.06.2022 10:20 18,7 C 18,3 C 15,0 C 98 % 1007,1 hPa 0,0 l/m 0 min 0 min 192 W/m 6,4 km/h (2 Bft) 97,87 %
24.06.2022 10:22 18,8 C 18,3 C 15,0 C 98 % 1007,1 hPa 0,0 l/m 0 min 0 min 184 W/m 3,2 km/h (1 Bft) 100,00 %
24.06.2022 10:24 18,8 C 18,3 C 15,0 C 98 % 1007,1 hPa 0,0 l/m 0 min 0 min 171 W/m 3,2 km/h (1 Bft) 100,00 %
24.06.2022 10:26 18,9 C 18,3 C 15,0 C 98 % 1007,0 hPa 0,0 l/m 0 min 0 min 165 W/m 3,2 km/h (1 Bft) 100,00 %
24.06.2022 10:28 19,0 C 18,3 C 15,0 C 98 % 1007,0 hPa 0,0 l/m 0 min 0 min 162 W/m 3,2 km/h (1 Bft) 97,87 %
24.06.2022 10:30 19,0 C 18,3 C 15,0 C 98 % 1007,1 hPa 0,0 l/m 0 min 0 min 147 W/m 3,2 km/h (1 Bft) 97,87 %
24.06.2022 10:32 19,0 C 18,3 C 15,0 C 98 % 1007,1 hPa 0,0 l/m 0 min 0 min 127 W/m 3,2 km/h (1 Bft) 97,87 %
24.06.2022 10:34 19,1 C 18,3 C 15,0 C 98 % 1007,0 hPa 0,0 l/m 0 min 0 min 122 W/m 3,2 km/h (1 Bft) 97,87 %
24.06.2022 10:36 19,1 C 18,3 C 15,0 C 98 % 1007,0 hPa 0,0 l/m 0 min 0 min 122 W/m 3,2 km/h (1 Bft) 98,28 %
24.06.2022 10:38 19,1 C 18,3 C 15,0 C 98 % 1007,1 hPa 0,0 l/m 0 min 0 min 117 W/m 3,2 km/h (1 Bft) 94,29 %
24.06.2022 10:40 19,1 C 18,3 C 15,0 C 98 % 1007,0 hPa 0,0 l/m 0 min 0 min 101 W/m 3,2 km/h (1 Bft) 97,87 %
24.06.2022 10:42 19,1 C 18,3 C 15,0 C 98 % 1007,0 hPa 0,0 l/m 0 min 0 min 85 W/m 0,0 km/h (0 Bft) 97,87 %
24.06.2022 10:44 19,1 C 18,3 C 15,0 C 98 % 1007,0 hPa 0,0 l/m 0 min 0 min 72 W/m 3,2 km/h (1 Bft) 97,87 %
24.06.2022 10:46 19,1 C 18,3 C 15,0 C 98 % 1007,0 hPa 0,0 l/m 0 min 0 min 67 W/m 0,0 km/h (0 Bft) 97,87 %
24.06.2022 10:48 19,1 C 18,3 C 15,0 C 98 % 1007,0 hPa 0,0 l/m 0 min 0 min 65 W/m 3,2 km/h (1 Bft) 97,87 %
24.06.2022 10:50 19,1 C 18,3 C 15,0 C 98 % 1007,0 hPa 0,0 l/m 0 min 0 min 63 W/m 6,4 km/h (2 Bft) 95,74 %
24.06.2022 10:52 19,0 C 18,3 C 15,0 C 98 % 1007,1 hPa 0,0 l/m 0 min 0 min 63 W/m 3,2 km/h (1 Bft) 97,83 %
24.06.2022 10:54 19,0 C 18,3 C 15,0 C 98 % 1007,2 hPa 0,0 l/m 0 min 0 min 64 W/m 3,2 km/h (1 Bft) 97,87 %
24.06.2022 10:56 19,0 C 18,3 C 15,0 C 98 % 1007,3 hPa 0,0 l/m 0 min 0 min 65 W/m 3,2 km/h (1 Bft) 97,87 %
24.06.2022 10:58 19,0 C 18,3 C 15,0 C 98 % 1007,3 hPa 0,0 l/m 0 min 0 min 71 W/m 3,2 km/h (1 Bft) 95,74 %
24.06.2022 11:00 19,0 C 18,3 C 15,0 C 98 % 1007,2 hPa 0,0 l/m 0 min 0 min 79 W/m 3,2 km/h (1 Bft) 97,87 %
24.06.2022 11:02 19,0 C 18,3 C 15,0 C 98 % 1007,2 hPa 0,0 l/m 0 min 0 min 83 W/m 3,2 km/h (1 Bft) 100,00 %
24.06.2022 11:04 19,0 C 18,3 C 15,0 C 98 % 1007,3 hPa 0,0 l/m 0 min 0 min 80 W/m 3,2 km/h (1 Bft) 100,00 %
24.06.2022 11:06 19,1 C 18,3 C 15,0 C 98 % 1007,3 hPa 0,0 l/m 0 min 0 min 81 W/m 3,2 km/h (1 Bft) 98,31 %
24.06.2022 11:08 19,1 C 18,3 C 15,0 C 98 % 1007,4 hPa 0,0 l/m 0 min 0 min 88 W/m 3,2 km/h (1 Bft) 97,14 %
24.06.2022 11:10 19,1 C 18,3 C 15,0 C 98 % 1007,3 hPa 0,0 l/m 0 min 0 min 103 W/m 3,2 km/h (1 Bft) 100,00 %
24.06.2022 11:12 19,1 C 18,9 C 15,0 C 98 % 1007,3 hPa 0,0 l/m 0 min 0 min 120 W/m 3,2 km/h (1 Bft) 100,00 %
24.06.2022 11:14 19,1 C 18,9 C 15,0 C 98 % 1007,3 hPa 0,0 l/m 0 min 0 min 143 W/m 3,2 km/h (1 Bft) 100,00 %
24.06.2022 11:16 19,1 C 18,9 C 15,0 C 97 % 1007,3 hPa 0,0 l/m 0 min 0 min 170 W/m 3,2 km/h (1 Bft) 100,00 %
24.06.2022 11:18 19,2 C 18,9 C 15,0 C 97 % 1007,3 hPa 0,0 l/m 0 min 0 min 215 W/m 3,2 km/h (1 Bft) 97,87 %
24.06.2022 11:20 19,2 C 18,9 C 15,0 C 97 % 1007,3 hPa 0,0 l/m 0 min 0 min 244 W/m 3,2 km/h (1 Bft) 97,87 %
24.06.2022 11:22 19,2 C 18,9 C 15,0 C 97 % 1007,3 hPa 0,0 l/m 0 min 0 min 246 W/m 3,2 km/h (1 Bft) 95,74 %
24.06.2022 11:24 19,2 C 19,4 C 15,6 C 97 % 1007,2 hPa 0,0 l/m 0 min 0 min 244 W/m 3,2 km/h (1 Bft) 97,87 %
24.06.2022 11:26 19,3 C 19,4 C 15,0 C 97 % 1007,2 hPa 0,0 l/m 0 min 0 min 250 W/m 3,2 km/h (1 Bft) 97,83 %
24.06.2022 11:28 19,3 C 19,4 C 15,6 C 97 % 1007,2 hPa 0,0 l/m 0 min 0 min 243 W/m 3,2 km/h (1 Bft) 97,87 %
24.06.2022 11:30 19,4 C 19,4 C 15,6 C 97 % 1007,2 hPa 0,0 l/m 0 min 0 min 232 W/m 3,2 km/h (1 Bft) 97,87 %
24.06.2022 11:32 19,4 C 20,0 C 15,6 C 97 % 1007,2 hPa 0,0 l/m 0 min 0 min 232 W/m 3,2 km/h (1 Bft) 97,87 %
24.06.2022 11:34 19,5 C 20,0 C 15,6 C 97 % 1007,2 hPa 0,0 l/m 0 min 0 min 259 W/m 3,2 km/h (1 Bft) 97,87 %
24.06.2022 11:36 19,6 C 20,0 C 15,6 C 97 % 1007,2 hPa 0,0 l/m 0 min 0 min 284 W/m 6,4 km/h (2 Bft) 100,00 %
24.06.2022 11:38 19,6 C 20,6 C 16,1 C 97 % 1007,1 hPa 0,0 l/m 0 min 0 min 367 W/m 3,2 km/h (1 Bft) 94,29 %
24.06.2022 11:40 19,7 C 20,6 C 16,1 C 97 % 1007,2 hPa 0,0 l/m 2 min 0 min 422 W/m 6,4 km/h (2 Bft) 95,74 %
24.06.2022 11:42 19,8 C 20,6 C 16,1 C 97 % 1007,2 hPa 0,0 l/m 0 min 0 min 386 W/m 6,4 km/h (2 Bft) 95,74 %
24.06.2022 11:44 19,9 C 21,1 C 16,7 C 97 % 1007,1 hPa 0,0 l/m 0 min 0 min 413 W/m 3,2 km/h (1 Bft) 95,74 %
24.06.2022 11:46 19,9 C 21,1 C 16,7 C 97 % 1007,1 hPa 0,0 l/m 2 min 0 min 566 W/m 6,4 km/h (2 Bft) 93,62 %
24.06.2022 11:48 20,1 C 22,2 C 16,7 C 97 % 1007,1 hPa 0,0 l/m 2 min 0 min 641 W/m 6,4 km/h (2 Bft) 95,74 %
24.06.2022 11:50 20,2 C 22,8 C 17,2 C 96 % 1007,0 hPa 0,0 l/m 2 min 0 min 1014 W/m 12,9 km/h (3 Bft) 95,65 %
24.06.2022 11:52 20,3 C 23,3 C 17,2 C 96 % 1007,0 hPa 0,0 l/m 2 min 0 min 994 W/m 9,7 km/h (2 Bft) 93,62 %
24.06.2022 11:54 20,5 C 23,9 C 17,2 C 96 % 1007,0 hPa 0,0 l/m 2 min 0 min 887 W/m 3,2 km/h (1 Bft) 95,74 %
24.06.2022 11:56 20,7 C 23,3 C 16,7 C 95 % 1006,9 hPa 0,0 l/m 2 min 0 min 671 W/m 12,9 km/h (3 Bft) 95,74 %
24.06.2022 11:58 20,8 C 23,3 C 16,7 C 95 % 1006,9 hPa 0,0 l/m 2 min 0 min 578 W/m 6,4 km/h (2 Bft) 95,74 %
24.06.2022 12:00 20,9 C 23,3 C 17,2 C 94 % 1006,9 hPa 0,0 l/m 2 min 0 min 972 W/m 6,4 km/h (2 Bft) 95,74 %
24.06.2022 12:02 21,1 C 22,8 C 16,1 C 93 % 1007,0 hPa 0,0 l/m 2 min 0 min 672 W/m 6,4 km/h (2 Bft) 93,48 %
24.06.2022 12:04 21,1 C 23,3 C 16,7 C 93 % 1006,9 hPa 0,0 l/m 0 min 0 min 283 W/m 6,4 km/h (2 Bft) 95,74 %
24.06.2022 12:08 21,4 C 23,9 C 17,2 C 91 % 1006,9 hPa 0,0 l/m 4 min 0 min 468 W/m 9,7 km/h (2 Bft) 96,19 %
24.06.2022 12:10 21,6 C 24,4 C 17,8 C 91 % 1006,9 hPa 0,0 l/m 2 min 0 min 963 W/m 6,4 km/h (2 Bft) 95,74 %
24.06.2022 12:12 21,6 C 23,9 C 17,2 C 89 % 1006,9 hPa 0,0 l/m 2 min 0 min 963 W/m 16,1 km/h (3 Bft) 97,87 %
24.06.2022 12:14 21,7 C 23,3 C 17,2 C 89 % 1007,0 hPa 0,0 l/m 0 min 0 min 278 W/m 9,7 km/h (2 Bft) 97,87 %
24.06.2022 12:16 21,7 C 23,3 C 18,9 C 87 % 1006,9 hPa 0,0 l/m 0 min 0 min 434 W/m 6,4 km/h (2 Bft) 95,74 %
24.06.2022 12:18 21,8 C 23,9 C 20,6 C 87 % 1006,9 hPa 0,0 l/m 2 min 0 min 994 W/m 12,9 km/h (3 Bft) 97,83 %
24.06.2022 12:20 21,9 C 25,0 C 22,2 C 87 % 1007,0 hPa 0,0 l/m 2 min 0 min 1021 W/m 9,7 km/h (2 Bft) 100,00 %
24.06.2022 12:22 22,1 C 25,0 C 22,8 C 87 % 1007,0 hPa 0,0 l/m 2 min 0 min 1037 W/m 3,2 km/h (1 Bft) 95,74 %
24.06.2022 12:24 22,2 C 25,0 C 22,8 C 86 % 1007,0 hPa 0,0 l/m 2 min 0 min 1039 W/m 9,7 km/h (2 Bft) 97,87 %
24.06.2022 12:26 22,3 C 24,4 C 22,2 C 85 % 1007,0 hPa 0,0 l/m 2 min 0 min 934 W/m 6,4 km/h (2 Bft) 97,87 %
24.06.2022 12:28 22,4 C 24,4 C 21,7 C 85 % 1007,0 hPa 0,0 l/m 0 min 0 min 340 W/m 9,7 km/h (2 Bft) 97,87 %
24.06.2022 12:30 22,4 C 23,9 C 21,1 C 84 % 1006,9 hPa 0,0 l/m 0 min 0 min 219 W/m 6,4 km/h (2 Bft) 97,83 %
24.06.2022 12:32 22,4 C 23,9 C 21,7 C 83 % 1006,9 hPa 0,0 l/m 0 min 0 min 197 W/m 9,7 km/h (2 Bft) 95,74 %
24.06.2022 12:34 22,5 C 24,4 C 23,3 C 83 % 1006,9 hPa 0,0 l/m 2 min 0 min 747 W/m 12,9 km/h (3 Bft) 97,87 %
24.06.2022 12:36 22,7 C 25,0 C 25,0 C 83 % 1006,9 hPa 0,0 l/m 2 min 0 min 996 W/m 6,4 km/h (2 Bft) 95,74 %
24.06.2022 12:38 22,8 C 25,0 C 25,6 C 83 % 1007,0 hPa 0,0 l/m 2 min 0 min 1099 W/m 9,7 km/h (2 Bft) 93,62 %
24.06.2022 12:40 23,1 C 25,0 C 24,4 C 82 % 1007,0 hPa 0,0 l/m 2 min 0 min 611 W/m 9,7 km/h (2 Bft) 97,87 %
24.06.2022 12:42 23,1 C 24,4 C 23,9 C 82 % 1007,0 hPa 0,0 l/m 0 min 0 min 316 W/m 3,2 km/h (1 Bft) 97,83 %
24.06.2022 12:44 23,1 C 23,9 C 22,8 C 81 % 1007,0 hPa 0,0 l/m 0 min 0 min 131 W/m 9,7 km/h (2 Bft) 97,87 %
24.06.2022 12:46 23,1 C 23,3 C 21,7 C 81 % 1007,1 hPa 0,0 l/m 0 min 0 min 91 W/m 6,4 km/h (2 Bft) 97,87 %
24.06.2022 12:48 23,1 C 22,8 C 20,6 C 81 % 1007,1 hPa 0,0 l/m 0 min 2 min 76 W/m 6,4 km/h (2 Bft) 95,74 %
24.06.2022 12:50 23,0 C 22,8 C 20,0 C 81 % 1007,1 hPa 0,0 l/m 0 min 2 min 69 W/m 3,2 km/h (1 Bft) 97,87 %
24.06.2022 12:52 22,9 C 22,2 C 20,0 C 82 % 1007,1 hPa 0,0 l/m 0 min 0 min 71 W/m 12,9 km/h (3 Bft) 97,87 %
24.06.2022 12:54 22,8 C 22,2 C 19,4 C 82 % 1007,2 hPa 0,0 l/m 0 min 0 min 93 W/m 3,2 km/h (1 Bft) 97,83 %
24.06.2022 12:56 22,7 C 21,7 C 18,9 C 82 % 1007,2 hPa 0,0 l/m 0 min 0 min 140 W/m 6,4 km/h (2 Bft) 97,87 %
24.06.2022 12:58 22,5 C 21,7 C 18,9 C 83 % 1007,1 hPa 0,0 l/m 0 min 0 min 223 W/m 6,4 km/h (2 Bft) 95,74 %
24.06.2022 13:00 22,3 C 22,2 C 20,0 C 83 % 1007,2 hPa 0,0 l/m 0 min 0 min 334 W/m 6,4 km/h (2 Bft) 97,87 %
24.06.2022 13:02 22,3 C 22,8 C 21,7 C 83 % 1007,1 hPa 0,0 l/m 2 min 0 min 748 W/m 16,1 km/h (3 Bft) 100,00 %
24.06.2022 13:04 22,4 C 23,3 C 22,8 C 83 % 1007,2 hPa 0,0 l/m 2 min 0 min 899 W/m 16,1 km/h (3 Bft) 100,00 %
24.06.2022 13:06 22,6 C 23,3 C 22,8 C 82 % 1007,1 hPa 0,0 l/m 2 min 0 min 829 W/m 6,4 km/h (2 Bft) 100,00 %
24.06.2022 13:08 22,6 C 23,3 C 22,2 C 82 % 1007,0 hPa 0,0 l/m 0 min 0 min 293 W/m 12,9 km/h (3 Bft) 100,00 %
24.06.2022 13:10 22,6 C 23,3 C 21,7 C 82 % 1007,1 hPa 0,0 l/m 0 min 0 min 309 W/m 12,9 km/h (3 Bft) 100,00 %
24.06.2022 13:12 22,7 C 23,3 C 22,2 C 82 % 1007,0 hPa 0,0 l/m 2 min 0 min 576 W/m 12,9 km/h (3 Bft) 100,00 %
24.06.2022 13:14 22,9 C 24,4 C 22,8 C 82 % 1007,1 hPa 0,0 l/m 2 min 0 min 848 W/m 12,9 km/h (3 Bft) 100,00 %
24.06.2022 13:16 23,1 C 25,0 C 23,9 C 81 % 1007,0 hPa 0,0 l/m 2 min 0 min 1058 W/m 9,7 km/h (2 Bft) 100,00 %
24.06.2022 13:18 23,2 C 25,6 C 23,9 C 81 % 1007,0 hPa 0,0 l/m 2 min 0 min 1151 W/m 9,7 km/h (2 Bft) 100,00 %
24.06.2022 13:20 23,4 C 25,0 C 23,9 C 81 % 1007,0 hPa 0,0 l/m 2 min 0 min 970 W/m 12,9 km/h (3 Bft) 100,00 %
24.06.2022 13:22 23,4 C 25,0 C 22,8 C 80 % 1007,0 hPa 0,0 l/m 0 min 0 min 364 W/m 6,4 km/h (2 Bft) 97,87 %
24.06.2022 13:24 23,6 C 25,0 C 22,8 C 80 % 1007,1 hPa 0,0 l/m 0 min 0 min 366 W/m 9,7 km/h (2 Bft) 100,00 %
24.06.2022 13:26 23,6 C 25,0 C 22,2 C 78 % 1007,0 hPa 0,0 l/m 0 min 0 min 366 W/m 12,9 km/h (3 Bft) 100,00 %
24.06.2022 13:28 23,7 C 24,4 C 22,2 C 78 % 1007,1 hPa 0,0 l/m 2 min 0 min 583 W/m 12,9 km/h (3 Bft) 100,00 %
24.06.2022 13:30 23,7 C 23,9 C 21,7 C 77 % 1007,0 hPa 0,0 l/m 0 min 0 min 358 W/m 16,1 km/h (3 Bft) 100,00 %
24.06.2022 13:32 23,6 C 23,3 C 21,1 C 77 % 1007,1 hPa 0,0 l/m 0 min 0 min 282 W/m 16,1 km/h (3 Bft) 100,00 %
24.06.2022 13:34 23,4 C 23,3 C 20,6 C 77 % 1007,0 hPa 0,0 l/m 0 min 0 min 218 W/m 12,9 km/h (3 Bft) 97,87 %
24.06.2022 13:36 23,4 C 23,3 C 20,0 C 77 % 1007,1 hPa 0,0 l/m 0 min 0 min 233 W/m 12,9 km/h (3 Bft) 100,00 %
24.06.2022 13:38 23,3 C 23,3 C 20,0 C 77 % 1007,1 hPa 0,0 l/m 0 min 0 min 248 W/m 9,7 km/h (2 Bft) 100,00 %
24.06.2022 13:40 23,3 C 23,3 C 20,0 C 78 % 1007,1 hPa 0,0 l/m 0 min 0 min 307 W/m 12,9 km/h (3 Bft) 100,00 %
24.06.2022 13:42 23,3 C 23,3 C 20,0 C 78 % 1007,1 hPa 0,0 l/m 0 min 0 min 341 W/m 16,1 km/h (3 Bft) 100,00 %
24.06.2022 13:44 23,3 C 23,3 C 20,6 C 79 % 1007,1 hPa 0,0 l/m 0 min 0 min 408 W/m 12,9 km/h (3 Bft) 100,00 %
24.06.2022 13:46 23,3 C 23,3 C 20,6 C 78 % 1007,0 hPa 0,0 l/m 2 min 0 min 472 W/m 19,3 km/h (3 Bft) 100,00 %
24.06.2022 13:48 23,3 C 23,9 C 21,7 C 78 % 1007,0 hPa 0,0 l/m 2 min 0 min 584 W/m 12,9 km/h (3 Bft) 100,00 %
24.06.2022 13:50 23,4 C 24,4 C 21,7 C 78 % 1006,9 hPa 0,0 l/m 2 min 0 min 559 W/m 6,4 km/h (2 Bft) 100,00 %
24.06.2022 13:52 23,6 C 24,4 C 22,2 C 76 % 1006,9 hPa 0,0 l/m 2 min 0 min 483 W/m 9,7 km/h (2 Bft) 100,00 %
24.06.2022 13:54 23,7 C 25,0 C 22,2 C 76 % 1006,8 hPa 0,0 l/m 2 min 0 min 455 W/m 12,9 km/h (3 Bft) 100,00 %
24.06.2022 13:56 23,8 C 25,6 C 22,8 C 76 % 1006,7 hPa 0,0 l/m 0 min 0 min 436 W/m 12,9 km/h (3 Bft) 100,00 %
24.06.2022 13:58 24,0 C 26,1 C 23,3 C 76 % 1006,8 hPa 0,0 l/m 0 min 0 min 436 W/m 6,4 km/h (2 Bft) 100,00 %
24.06.2022 14:00 24,2 C 26,7 C 23,3 C 75 % 1006,8 hPa 0,0 l/m 2 min 0 min 852 W/m 12,9 km/h (3 Bft) 100,00 %
24.06.2022 14:02 24,3 C 27,2 C 23,3 C 75 % 1006,8 hPa 0,0 l/m 2 min 0 min 1178 W/m 9,7 km/h (2 Bft) 100,00 %
24.06.2022 14:04 24,6 C 27,2 C 23,3 C 74 % 1006,8 hPa 0,0 l/m 2 min 0 min 1139 W/m 9,7 km/h (2 Bft) 100,00 %
24.06.2022 14:06 24,8 C 27,8 C 23,3 C 74 % 1006,8 hPa 0,0 l/m 2 min 0 min 1090 W/m 9,7 km/h (2 Bft) 98,28 %
24.06.2022 14:08 25,0 C 28,3 C 23,3 C 74 % 1006,8 hPa 0,0 l/m 2 min 0 min 1027 W/m 6,4 km/h (2 Bft) 100,00 %
24.06.2022 14:10 25,2 C 28,9 C 23,3 C 75 % 1006,8 hPa 0,0 l/m 2 min 0 min 998 W/m 9,7 km/h (2 Bft) 97,87 %
24.06.2022 14:12 25,4 C 28,9 C 22,8 C 73 % 1006,8 hPa 0,0 l/m 2 min 0 min 988 W/m 9,7 km/h (2 Bft) 97,14 %
24.06.2022 14:14 25,5 C 28,3 C 22,2 C 71 % 1006,7 hPa 0,0 l/m 2 min 0 min 1011 W/m 6,4 km/h (2 Bft) 97,87 %
24.06.2022 14:16 25,6 C 28,3 C 22,2 C 70 % 1006,7 hPa 0,0 l/m 2 min 0 min 1076 W/m 9,7 km/h (2 Bft) 95,74 %
24.06.2022 14:18 25,7 C 27,8 C 22,2 C 70 % 1006,7 hPa 0,0 l/m 2 min 0 min 1095 W/m 9,7 km/h (2 Bft) 97,87 %
24.06.2022 14:20 25,7 C 27,2 C 22,2 C 69 % 1006,7 hPa 0,0 l/m 2 min 0 min 570 W/m 9,7 km/h (2 Bft) 95,74 %
24.06.2022 14:22 25,7 C 26,7 C 21,7 C 68 % 1006,7 hPa 0,0 l/m 2 min 0 min 451 W/m 9,7 km/h (2 Bft) 95,74 %
24.06.2022 14:24 25,6 C 26,7 C 21,7 C 68 % 1006,7 hPa 0,0 l/m 2 min 0 min 469 W/m 9,7 km/h (2 Bft) 97,87 %
24.06.2022 14:26 25,6 C 26,7 C 21,7 C 69 % 1006,6 hPa 0,0 l/m 2 min 0 min 469 W/m 9,7 km/h (2 Bft) 95,65 %
24.06.2022 14:28 25,6 C 26,7 C 21,7 C 69 % 1006,6 hPa 0,0 l/m 2 min 0 min 488 W/m 9,7 km/h (2 Bft) 95,74 %
24.06.2022 14:30 25,6 C 27,2 C 21,7 C 69 % 1006,6 hPa 0,0 l/m 2 min 0 min 508 W/m 9,7 km/h (2 Bft) 95,74 %
24.06.2022 14:32 25,6 C 26,7 C 21,7 C 68 % 1006,6 hPa 0,0 l/m 2 min 0 min 508 W/m 9,7 km/h (2 Bft) 93,62 %
24.06.2022 14:34 25,6 C 26,7 C 21,7 C 67 % 1006,6 hPa 0,0 l/m 2 min 0 min 448 W/m 9,7 km/h (2 Bft) 95,74 %
24.06.2022 14:36 25,5 C 26,1 C 21,7 C 66 % 1006,6 hPa 0,0 l/m 0 min 0 min 415 W/m 9,7 km/h (2 Bft) 93,10 %
24.06.2022 14:38 25,5 C 25,6 C 21,7 C 66 % 1006,6 hPa 0,0 l/m 0 min 0 min 439 W/m 6,4 km/h (2 Bft) 97,14 %
24.06.2022 14:40 25,4 C 26,1 C 21,7 C 67 % 1006,7 hPa 0,0 l/m 2 min 0 min 511 W/m 6,4 km/h (2 Bft) 93,62 %
24.06.2022 14:42 25,4 C 26,1 C 21,7 C 67 % 1006,7 hPa 0,0 l/m 2 min 0 min 456 W/m 6,4 km/h (2 Bft) 91,49 %
24.06.2022 14:44 25,3 C 25,6 C 21,7 C 66 % 1006,7 hPa 0,0 l/m 0 min 0 min 419 W/m 9,7 km/h (2 Bft) 91,49 %
24.06.2022 14:46 25,3 C 26,1 C 21,7 C 67 % 1006,7 hPa 0,0 l/m 2 min 0 min 595 W/m 6,4 km/h (2 Bft) 93,62 %
24.06.2022 14:48 25,4 C 26,7 C 21,7 C 67 % 1006,7 hPa 0,0 l/m 2 min 0 min 1098 W/m 6,4 km/h (2 Bft) 91,30 %
24.06.2022 14:50 25,5 C 27,8 C 21,7 C 67 % 1006,6 hPa 0,0 l/m 2 min 0 min 999 W/m 9,7 km/h (2 Bft) 93,62 %
24.06.2022 14:52 25,6 C 27,8 C 21,1 C 67 % 1006,6 hPa 0,0 l/m 2 min 0 min 926 W/m 9,7 km/h (2 Bft) 93,62 %
24.06.2022 14:54 25,6 C 27,8 C 21,1 C 66 % 1006,6 hPa 0,0 l/m 2 min 0 min 909 W/m 9,7 km/h (2 Bft) 91,49 %
24.06.2022 14:56 25,7 C 28,3 C 21,1 C 67 % 1006,6 hPa 0,0 l/m 2 min 0 min 906 W/m 6,4 km/h (2 Bft) 95,74 %
24.06.2022 14:58 25,8 C 28,3 C 21,7 C 68 % 1006,6 hPa 0,0 l/m 2 min 0 min 908 W/m 12,9 km/h (3 Bft) 95,74 %
24.06.2022 15:00 25,9 C 28,3 C 21,7 C 67 % 1006,7 hPa 0,0 l/m 2 min 0 min 914 W/m 12,9 km/h (3 Bft) 95,65 %
24.06.2022 15:02 25,9 C 27,2 C 21,7 C 66 % 1006,7 hPa 0,0 l/m 2 min 0 min 933 W/m 12,9 km/h (3 Bft) 95,74 %
24.06.2022 15:04 25,8 C 27,8 C 21,1 C 66 % 1006,7 hPa 0,0 l/m 2 min 0 min 924 W/m 6,4 km/h (2 Bft) 97,87 %
24.06.2022 15:06 25,9 C 27,8 C 21,7 C 66 % 1006,7 hPa 0,0 l/m 2 min 0 min 925 W/m 6,4 km/h (2 Bft) 95,74 %
24.06.2022 15:08 25,9 C 28,3 C 21,7 C 66 % 1006,7 hPa 0,0 l/m 2 min 0 min 936 W/m 9,7 km/h (2 Bft) 95,74 %
24.06.2022 15:10 26,0 C 28,3 C 21,7 C 64 % 1006,7 hPa 0,0 l/m 2 min 0 min 940 W/m 12,9 km/h (3 Bft) 97,87 %
24.06.2022 15:12 26,1 C 28,9 C 21,7 C 63 % 1006,8 hPa 0,0 l/m 2 min 0 min 924 W/m 12,9 km/h (3 Bft) 97,83 %
24.06.2022 15:14 26,1 C 28,3 C 21,7 C 63 % 1006,8 hPa 0,0 l/m 2 min 0 min 921 W/m 12,9 km/h (3 Bft) 95,74 %
24.06.2022 15:16 26,2 C 28,9 C 21,7 C 64 % 1006,8 hPa 0,0 l/m 2 min 0 min 932 W/m 9,7 km/h (2 Bft) 97,87 %
24.06.2022 15:18 26,3 C 28,9 C 21,7 C 64 % 1006,8 hPa 0,0 l/m 2 min 0 min 943 W/m 9,7 km/h (2 Bft) 97,87 %
24.06.2022 15:20 26,4 C 28,9 C 21,7 C 65 % 1006,8 hPa 0,0 l/m 2 min 0 min 942 W/m 16,1 km/h (3 Bft) 95,74 %
24.06.2022 15:22 26,5 C 28,3 C 21,7 C 64 % 1006,9 hPa 0,0 l/m 2 min 0 min 939 W/m 9,7 km/h (2 Bft) 97,87 %
24.06.2022 15:24 26,6 C 27,2 C 21,7 C 63 % 1006,9 hPa 0,0 l/m 2 min 0 min 965 W/m 9,7 km/h (2 Bft) 97,83 %
24.06.2022 15:26 26,6 C 27,2 C 21,7 C 64 % 1006,9 hPa 0,0 l/m 0 min 0 min 349 W/m 9,7 km/h (2 Bft) 97,87 %
24.06.2022 15:28 26,6 C 27,2 C 21,7 C 64 % 1006,8 hPa 0,0 l/m 2 min 0 min 679 W/m 9,7 km/h (2 Bft) 100,00 %
24.06.2022 15:30 26,6 C 28,3 C 21,7 C 65 % 1006,8 hPa 0,0 l/m 2 min 0 min 958 W/m 9,7 km/h (2 Bft) 97,87 %
24.06.2022 15:32 26,6 C 28,3 C 21,7 C 63 % 1006,9 hPa 0,0 l/m 2 min 0 min 937 W/m 9,7 km/h (2 Bft) 97,92 %
24.06.2022 15:34 26,6 C 28,9 C 21,7 C 62 % 1006,8 hPa 0,0 l/m 2 min 0 min 911 W/m 9,7 km/h (2 Bft) 100,00 %
24.06.2022 15:36 26,7 C 29,4 C 22,2 C 64 % 1006,8 hPa 0,0 l/m 2 min 0 min 903 W/m 9,7 km/h (2 Bft) 100,00 %
24.06.2022 15:38 26,8 C 29,4 C 22,2 C 63 % 1006,8 hPa 0,0 l/m 2 min 0 min 902 W/m 9,7 km/h (2 Bft) 100,00 %
24.06.2022 15:40 26,9 C 29,4 C 22,2 C 62 % 1006,7 hPa 0,0 l/m 2 min 0 min 899 W/m 12,9 km/h (3 Bft) 100,00 %
24.06.2022 15:42 26,9 C 29,4 C 22,2 C 62 % 1006,7 hPa 0,0 l/m 2 min 0 min 892 W/m 9,7 km/h (2 Bft) 97,87 %
24.06.2022 15:44 27,0 C 28,9 C 22,2 C 62 % 1006,6 hPa 0,0 l/m 2 min 0 min 893 W/m 9,7 km/h (2 Bft) 100,00 %
24.06.2022 15:46 27,1 C 28,3 C 22,2 C 62 % 1006,6 hPa 0,0 l/m 2 min 0 min 752 W/m 9,7 km/h (2 Bft) 100,00 %
24.06.2022 15:48 26,9 C 27,8 C 21,7 C 61 % 1006,7 hPa 0,0 l/m 0 min 0 min 149 W/m 6,4 km/h (2 Bft) 100,00 %
24.06.2022 15:50 26,8 C 27,2 C 21,7 C 60 % 1006,6 hPa 0,0 l/m 0 min 0 min 152 W/m 16,1 km/h (3 Bft) 100,00 %
24.06.2022 15:52 26,8 C 26,7 C 21,7 C 60 % 1006,6 hPa 0,0 l/m 0 min 0 min 212 W/m 6,4 km/h (2 Bft) 100,00 %
24.06.2022 15:54 26,8 C 28,3 C 21,7 C 63 % 1006,6 hPa 0,0 l/m 2 min 0 min 473 W/m 6,4 km/h (2 Bft) 100,00 %
24.06.2022 15:56 26,8 C 28,3 C 21,7 C 61 % 1006,6 hPa 0,0 l/m 2 min 0 min 979 W/m 6,4 km/h (2 Bft) 100,00 %
24.06.2022 15:58 26,8 C 27,8 C 21,7 C 62 % 1006,5 hPa 0,0 l/m 2 min 0 min 523 W/m 6,4 km/h (2 Bft) 100,00 %
24.06.2022 16:00 26,8 C 28,9 C 21,7 C 62 % 1006,4 hPa 0,0 l/m 0 min 0 min 237 W/m 12,9 km/h (3 Bft) 100,00 %
24.06.2022 16:02 26,8 C 28,9 C 21,7 C 62 % 1006,4 hPa 0,0 l/m 0 min 0 min 237 W/m 3,2 km/h (1 Bft) 95,74 %
24.06.2022 16:04 26,9 C 29,4 C 21,7 C 62 % 1006,4 hPa 0,0 l/m 2 min 0 min 620 W/m 6,4 km/h (2 Bft) 100,00 %
24.06.2022 16:06 26,9 C 28,3 C 21,7 C 62 % 1006,5 hPa 0,0 l/m 0 min 0 min 271 W/m 12,9 km/h (3 Bft) 100,00 %
24.06.2022 16:08 26,8 C 27,2 C 21,7 C 61 % 1006,5 hPa 0,0 l/m 0 min 0 min 133 W/m 16,1 km/h (3 Bft) 100,00 %
24.06.2022 16:10 26,8 C 26,7 C 21,7 C 61 % 1006,4 hPa 0,0 l/m 0 min 0 min 180 W/m 6,4 km/h (2 Bft) 100,00 %
24.06.2022 16:12 26,7 C 26,7 C 21,7 C 61 % 1006,5 hPa 0,0 l/m 0 min 0 min 194 W/m 6,4 km/h (2 Bft) 100,00 %
24.06.2022 16:14 26,7 C 26,7 C 21,7 C 61 % 1006,4 hPa 0,0 l/m 0 min 0 min 207 W/m 6,4 km/h (2 Bft) 97,87 %
24.06.2022 16:16 26,6 C 26,1 C 21,7 C 62 % 1006,5 hPa 0,0 l/m 0 min 0 min 232 W/m 3,2 km/h (1 Bft) 100,00 %
24.06.2022 16:18 26,4 C 27,8 C 21,7 C 63 % 1006,5 hPa 0,0 l/m 0 min 0 min 232 W/m 6,4 km/h (2 Bft) 97,83 %
24.06.2022 16:20 26,4 C 28,9 C 21,7 C 63 % 1006,4 hPa 0,0 l/m 2 min 0 min 875 W/m 9,7 km/h (2 Bft) 100,00 %
24.06.2022 16:22 26,4 C 27,8 C 21,7 C 62 % 1006,4 hPa 0,0 l/m 2 min 0 min 423 W/m 16,1 km/h (3 Bft) 97,96 %
24.06.2022 16:24 26,4 C 27,2 C 21,7 C 62 % 1006,4 hPa 0,0 l/m 0 min 0 min 219 W/m 6,4 km/h (2 Bft) 97,83 %
24.06.2022 16:26 26,4 C 26,7 C 21,7 C 62 % 1006,5 hPa 0,0 l/m 0 min 0 min 214 W/m 12,9 km/h (3 Bft) 97,87 %
24.06.2022 16:28 26,3 C 26,7 C 21,7 C 61 % 1006,5 hPa 0,0 l/m 0 min 0 min 231 W/m 3,2 km/h (1 Bft) 97,87 %
24.06.2022 16:30 26,3 C 26,1 C 21,7 C 62 % 1006,5 hPa 0,0 l/m 0 min 0 min 253 W/m 3,2 km/h (1 Bft) 97,87 %
24.06.2022 16:32 26,2 C 26,7 C 21,7 C 62 % 1006,5 hPa 0,0 l/m 0 min 0 min 280 W/m 6,4 km/h (2 Bft) 97,87 %
24.06.2022 16:34 26,2 C 28,3 C 21,7 C 63 % 1006,5 hPa 0,0 l/m 2 min 0 min 462 W/m 6,4 km/h (2 Bft) 97,87 %
24.06.2022 16:36 26,2 C 28,3 C 22,2 C 63 % 1006,5 hPa 0,0 l/m 2 min 0 min 867 W/m 6,4 km/h (2 Bft) 97,83 %
24.06.2022 16:38 26,3 C 27,8 C 22,2 C 63 % 1006,5 hPa 0,0 l/m 0 min 0 min 300 W/m 9,7 km/h (2 Bft) 97,87 %
24.06.2022 16:40 26,3 C 30,0 C 22,2 C 63 % 1006,5 hPa 0,0 l/m 2 min 0 min 733 W/m 6,4 km/h (2 Bft) 97,87 %
24.06.2022 16:42 26,4 C 30,6 C 22,8 C 64 % 1006,5 hPa 0,0 l/m 2 min 0 min 879 W/m 9,7 km/h (2 Bft) 95,74 %
24.06.2022 16:44 26,6 C 30,6 C 22,8 C 64 % 1006,5 hPa 0,0 l/m 2 min 0 min 723 W/m 6,4 km/h (2 Bft) 97,87 %
24.06.2022 16:46 26,7 C 29,4 C 22,8 C 63 % 1006,5 hPa 0,0 l/m 0 min 0 min 251 W/m 9,7 km/h (2 Bft) 97,87 %
24.06.2022 16:48 26,7 C 30,0 C 22,8 C 63 % 1006,5 hPa 0,0 l/m 0 min 0 min 310 W/m 12,9 km/h (3 Bft) 95,65 %
24.06.2022 16:50 26,7 C 30,6 C 22,8 C 63 % 1006,5 hPa 0,0 l/m 2 min 0 min 911 W/m 12,9 km/h (3 Bft) 95,74 %
24.06.2022 16:52 26,8 C 30,6 C 22,8 C 64 % 1006,5 hPa 0,0 l/m 2 min 0 min 834 W/m 12,9 km/h (3 Bft) 95,74 %
24.06.2022 16:54 26,9 C 30,6 C 22,8 C 63 % 1006,5 hPa 0,0 l/m 2 min 0 min 740 W/m 12,9 km/h (3 Bft) 93,62 %
24.06.2022 16:56 27,0 C 30,0 C 22,8 C 63 % 1006,4 hPa 0,0 l/m 2 min 0 min 766 W/m 19,3 km/h (3 Bft) 97,87 %
24.06.2022 16:58 27,1 C 29,4 C 22,8 C 64 % 1006,4 hPa 0,0 l/m 2 min 0 min 590 W/m 9,7 km/h (2 Bft) 97,87 %
24.06.2022 17:00 27,1 C 28,3 C 22,8 C 63 % 1006,4 hPa 0,0 l/m 2 min 0 min 369 W/m 16,1 km/h (3 Bft) 97,83 %
24.06.2022 17:02 27,1 C 27,2 C 22,2 C 64 % 1006,5 hPa 0,0 l/m 0 min 0 min 268 W/m 16,1 km/h (3 Bft) 97,87 %
24.06.2022 17:04 26,9 C 26,7 C 22,2 C 62 % 1006,4 hPa 0,0 l/m 0 min 0 min 209 W/m 16,1 km/h (3 Bft) 97,87 %
24.06.2022 17:06 26,8 C 26,1 C 21,7 C 63 % 1006,4 hPa 0,0 l/m 0 min 0 min 198 W/m 9,7 km/h (2 Bft) 95,74 %
24.06.2022 17:08 26,7 C 25,6 C 21,7 C 63 % 1006,4 hPa 0,0 l/m 0 min 0 min 197 W/m 12,9 km/h (3 Bft) 97,87 %
24.06.2022 17:10 26,4 C 25,6 C 21,7 C 64 % 1006,4 hPa 0,0 l/m 0 min 0 min 185 W/m 12,9 km/h (3 Bft) 97,87 %
24.06.2022 17:12 26,3 C 25,0 C 21,7 C 64 % 1006,4 hPa 0,0 l/m 0 min 0 min 169 W/m 16,1 km/h (3 Bft) 95,65 %
24.06.2022 17:14 26,1 C 25,0 C 21,1 C 65 % 1006,4 hPa 0,0 l/m 0 min 0 min 158 W/m 9,7 km/h (2 Bft) 97,87 %
24.06.2022 17:16 26,0 C 25,0 C 21,1 C 66 % 1006,4 hPa 0,0 l/m 0 min 0 min 158 W/m 9,7 km/h (2 Bft) 97,87 %
24.06.2022 17:18 25,8 C 24,4 C 21,1 C 66 % 1006,4 hPa 0,0 l/m 0 min 0 min 164 W/m 16,1 km/h (3 Bft) 95,74 %
24.06.2022 17:20 25,6 C 24,4 C 21,1 C 66 % 1006,4 hPa 0,0 l/m 0 min 0 min 167 W/m 16,1 km/h (3 Bft) 97,87 %
24.06.2022 17:22 25,5 C 24,4 C 20,6 C 67 % 1006,4 hPa 0,0 l/m 0 min 0 min 173 W/m 6,4 km/h (2 Bft) 97,87 %
24.06.2022 17:24 25,4 C 24,4 C 20,6 C 67 % 1006,5 hPa 0,0 l/m 0 min 0 min 180 W/m 12,9 km/h (3 Bft) 95,65 %
24.06.2022 17:26 25,2 C 24,4 C 20,6 C 67 % 1006,5 hPa 0,0 l/m 0 min 0 min 185 W/m 12,9 km/h (3 Bft) 91,49 %
24.06.2022 17:28 25,2 C 24,4 C 21,1 C 67 % 1006,5 hPa 0,0 l/m 0 min 0 min 190 W/m 16,1 km/h (3 Bft) 97,87 %
24.06.2022 17:30 25,1 C 24,4 C 20,6 C 67 % 1006,4 hPa 0,0 l/m 0 min 0 min 192 W/m 9,7 km/h (2 Bft) 97,87 %
24.06.2022 17:32 24,9 C 24,4 C 20,6 C 66 % 1006,4 hPa 0,0 l/m 0 min 0 min 188 W/m 16,1 km/h (3 Bft) 100,00 %
24.06.2022 17:34 24,8 C 23,9 C 20,6 C 66 % 1006,4 hPa 0,0 l/m 0 min 0 min 183 W/m 12,9 km/h (3 Bft) 100,00 %
24.06.2022 17:36 24,8 C 23,9 C 20,6 C 67 % 1006,4 hPa 0,0 l/m 0 min 0 min 179 W/m 16,1 km/h (3 Bft) 97,83 %
24.06.2022 17:38 24,8 C 23,9 C 20,6 C 67 % 1006,3 hPa 0,0 l/m 0 min 0 min 178 W/m 9,7 km/h (2 Bft) 100,00 %
24.06.2022 17:40 24,7 C 23,9 C 20,6 C 67 % 1006,2 hPa 0,0 l/m 0 min 0 min 181 W/m 12,9 km/h (3 Bft) 97,87 %
24.06.2022 17:42 24,7 C 23,9 C 20,6 C 67 % 1006,3 hPa 0,0 l/m 0 min 0 min 187 W/m 12,9 km/h (3 Bft) 97,87 %
24.06.2022 17:44 24,6 C 23,9 C 20,6 C 67 % 1006,3 hPa 0,0 l/m 0 min 0 min 194 W/m 19,3 km/h (3 Bft) 97,87 %
24.06.2022 17:46 24,6 C 23,9 C 20,6 C 66 % 1006,2 hPa 0,0 l/m 0 min 0 min 209 W/m 12,9 km/h (3 Bft) 97,83 %
24.06.2022 17:48 24,5 C 23,9 C 20,6 C 66 % 1006,3 hPa 0,0 l/m 0 min 0 min 230 W/m 12,9 km/h (3 Bft) 97,87 %
24.06.2022 17:50 24,5 C 23,9 C 20,6 C 67 % 1006,4 hPa 0,0 l/m 0 min 0 min 260 W/m 12,9 km/h (3 Bft) 97,87 %
24.06.2022 17:52 24,5 C 24,4 C 20,6 C 68 % 1006,4 hPa 0,0 l/m 2 min 0 min 310 W/m 12,9 km/h (3 Bft) 93,62 %
24.06.2022 17:54 24,5 C 24,4 C 20,6 C 67 % 1006,5 hPa 0,0 l/m 2 min 0 min 346 W/m 16,1 km/h (3 Bft) 97,87 %
24.06.2022 17:56 24,6 C 25,0 C 20,6 C 67 % 1006,5 hPa 0,0 l/m 2 min 0 min 310 W/m 9,7 km/h (2 Bft) 95,74 %
24.06.2022 17:58 24,6 C 25,0 C 20,6 C 68 % 1006,5 hPa 0,0 l/m 2 min 0 min 354 W/m 12,9 km/h (3 Bft) 97,83 %
24.06.2022 18:00 24,7 C 25,6 C 20,6 C 68 % 1006,6 hPa 0,0 l/m 2 min 0 min 381 W/m 12,9 km/h (3 Bft) 95,74 %
24.06.2022 18:02 24,7 C 25,6 C 21,1 C 67 % 1006,6 hPa 0,0 l/m 2 min 0 min 381 W/m 16,1 km/h (3 Bft) 97,87 %
24.06.2022 18:04 24,7 C 25,6 C 21,1 C 67 % 1006,6 hPa 0,0 l/m 2 min 0 min 378 W/m 16,1 km/h (3 Bft) 97,87 %
24.06.2022 18:08 24,8 C 26,1 C 21,1 C 67 % 1006,5 hPa 0,0 l/m 4 min 0 min 389 W/m 6,4 km/h (2 Bft) 97,87 %
24.06.2022 18:10 24,9 C 26,1 C 21,1 C 65 % 1006,5 hPa 0,0 l/m 2 min 0 min 329 W/m 16,1 km/h (3 Bft) 97,87 %
24.06.2022 18:12 24,9 C 25,6 C 21,1 C 65 % 1006,4 hPa 0,0 l/m 2 min 0 min 329 W/m 19,3 km/h (3 Bft) 95,65 %
24.06.2022 18:14 24,9 C 25,0 C 21,1 C 65 % 1006,3 hPa 0,0 l/m 2 min 0 min 265 W/m 16,1 km/h (3 Bft) 97,87 %
24.06.2022 18:16 24,8 C 25,0 C 20,6 C 65 % 1006,4 hPa 0,0 l/m 0 min 0 min 253 W/m 12,9 km/h (3 Bft) 97,87 %
24.06.2022 18:18 24,8 C 24,4 C 20,6 C 65 % 1006,4 hPa 0,0 l/m 2 min 0 min 271 W/m 12,9 km/h (3 Bft) 97,87 %
24.06.2022 18:20 24,7 C 24,4 C 20,6 C 66 % 1006,5 hPa 0,0 l/m 0 min 0 min 249 W/m 6,4 km/h (2 Bft) 97,87 %
24.06.2022 18:22 24,7 C 24,4 C 20,6 C 66 % 1006,5 hPa 0,0 l/m 2 min 0 min 255 W/m 6,4 km/h (2 Bft) 91,30 %
24.06.2022 18:24 24,7 C 24,4 C 20,6 C 66 % 1006,6 hPa 0,0 l/m 0 min 0 min 242 W/m 12,9 km/h (3 Bft) 95,74 %
24.06.2022 18:26 24,6 C 24,4 C 20,6 C 66 % 1006,6 hPa 0,0 l/m 0 min 0 min 232 W/m 16,1 km/h (3 Bft) 95,74 %
24.06.2022 18:28 24,6 C 24,4 C 20,6 C 67 % 1006,6 hPa 0,0 l/m 0 min 0 min 234 W/m 6,4 km/h (2 Bft) 95,74 %
24.06.2022 18:30 24,6 C 25,0 C 20,6 C 67 % 1006,6 hPa 0,0 l/m 2 min 0 min 294 W/m 6,4 km/h (2 Bft) 95,74 %
24.06.2022 18:32 24,6 C 25,0 C 20,6 C 68 % 1006,7 hPa 0,0 l/m 0 min 0 min 208 W/m 12,9 km/h (3 Bft) 95,74 %
24.06.2022 18:34 24,6 C 24,4 C 20,6 C 68 % 1006,7 hPa 0,0 l/m 0 min 0 min 187 W/m 12,9 km/h (3 Bft) 95,65 %
24.06.2022 18:36 24,5 C 24,4 C 20,6 C 68 % 1006,8 hPa 0,0 l/m 0 min 0 min 159 W/m 9,7 km/h (2 Bft) 95,74 %
24.06.2022 18:38 24,5 C 24,4 C 20,0 C 68 % 1006,8 hPa 0,0 l/m 0 min 0 min 148 W/m 12,9 km/h (3 Bft) 95,74 %
24.06.2022 18:40 24,4 C 23,9 C 20,0 C 68 % 1006,8 hPa 0,0 l/m 0 min 0 min 150 W/m 6,4 km/h (2 Bft) 93,62 %
24.06.2022 18:42 24,3 C 23,9 C 20,0 C 69 % 1006,9 hPa 0,0 l/m 0 min 0 min 146 W/m 9,7 km/h (2 Bft) 95,74 %
24.06.2022 18:44 24,3 C 23,9 C 20,0 C 69 % 1007,0 hPa 0,0 l/m 0 min 0 min 143 W/m 6,4 km/h (2 Bft) 95,74 %
24.06.2022 18:46 24,3 C 23,9 C 20,0 C 69 % 1007,0 hPa 0,0 l/m 0 min 0 min 145 W/m 6,4 km/h (2 Bft) 95,65 %
24.06.2022 18:48 24,3 C 23,9 C 20,0 C 68 % 1007,0 hPa 0,0 l/m 0 min 0 min 141 W/m 6,4 km/h (2 Bft) 97,87 %
24.06.2022 18:50 24,2 C 23,9 C 20,0 C 69 % 1007,0 hPa 0,0 l/m 0 min 0 min 135 W/m 6,4 km/h (2 Bft) 93,62 %
24.06.2022 18:52 24,2 C 23,9 C 20,0 C 69 % 1007,1 hPa 0,0 l/m 0 min 0 min 131 W/m 6,4 km/h (2 Bft) 97,87 %
24.06.2022 18:54 24,2 C 23,9 C 20,0 C 69 % 1007,0 hPa 0,0 l/m 0 min 0 min 130 W/m 12,9 km/h (3 Bft) 97,87 %
24.06.2022 18:56 24,1 C 23,9 C 20,0 C 69 % 1007,0 hPa 0,0 l/m 0 min 0 min 125 W/m 6,4 km/h (2 Bft) 95,74 %
24.06.2022 18:58 24,1 C 23,9 C 20,0 C 69 % 1007,0 hPa 0,0 l/m 0 min 0 min 135 W/m 6,4 km/h (2 Bft) 100,00 %
24.06.2022 19:00 24,1 C 23,3 C 20,0 C 69 % 1007,0 hPa 0,0 l/m 0 min 0 min 126 W/m 6,4 km/h (2 Bft) 100,00 %
24.06.2022 19:02 24,0 C 23,3 C 19,4 C 70 % 1007,0 hPa 0,0 l/m 0 min 0 min 110 W/m 6,4 km/h (2 Bft) 97,87 %
24.06.2022 19:04 23,9 C 23,3 C 19,4 C 70 % 1007,0 hPa 0,0 l/m 0 min 0 min 103 W/m 9,7 km/h (2 Bft) 100,00 %
24.06.2022 19:06 23,9 C 23,3 C 19,4 C 71 % 1007,1 hPa 0,0 l/m 0 min 0 min 100 W/m 3,2 km/h (1 Bft) 100,00 %
24.06.2022 19:08 23,8 C 23,3 C 19,4 C 71 % 1007,1 hPa 0,0 l/m 0 min 0 min 103 W/m 3,2 km/h (1 Bft) 100,00 %
24.06.2022 19:10 23,8 C 23,3 C 19,4 C 71 % 1007,1 hPa 0,0 l/m 0 min 0 min 106 W/m 6,4 km/h (2 Bft) 100,00 %
24.06.2022 19:12 23,8 C 22,8 C 19,4 C 71 % 1007,1 hPa 0,0 l/m 0 min 0 min 109 W/m 9,7 km/h (2 Bft) 100,00 %
24.06.2022 19:14 23,7 C 22,8 C 18,9 C 71 % 1007,1 hPa 0,0 l/m 0 min 0 min 113 W/m 3,2 km/h (1 Bft) 100,00 %
24.06.2022 19:16 23,7 C 22,8 C 18,9 C 71 % 1007,1 hPa 0,0 l/m 0 min 0 min 116 W/m 9,7 km/h (2 Bft) 100,00 %
24.06.2022 19:18 23,6 C 22,8 C 18,9 C 71 % 1007,1 hPa 0,0 l/m 0 min 0 min 118 W/m 6,4 km/h (2 Bft) 100,00 %
24.06.2022 19:20 23,6 C 22,8 C 19,4 C 72 % 1007,1 hPa 0,0 l/m 0 min 0 min 117 W/m 3,2 km/h (1 Bft) 97,87 %
24.06.2022 19:22 23,6 C 22,8 C 19,4 C 72 % 1007,1 hPa 0,0 l/m 0 min 0 min 113 W/m 6,4 km/h (2 Bft) 97,87 %
24.06.2022 19:24 23,6 C 22,8 C 18,9 C 72 % 1007,1 hPa 0,0 l/m 0 min 0 min 105 W/m 6,4 km/h (2 Bft) 97,83 %
24.06.2022 19:26 23,5 C 22,8 C 18,9 C 72 % 1007,2 hPa 0,0 l/m 0 min 0 min 98 W/m 6,4 km/h (2 Bft) 97,87 %
24.06.2022 19:28 23,4 C 22,8 C 18,9 C 72 % 1007,2 hPa 0,0 l/m 0 min 0 min 88 W/m 6,4 km/h (2 Bft) 97,87 %
24.06.2022 19:30 23,4 C 22,8 C 18,9 C 72 % 1007,2 hPa 0,0 l/m 0 min 0 min 81 W/m 6,4 km/h (2 Bft) 95,74 %
24.06.2022 19:32 23,3 C 22,2 C 18,9 C 72 % 1007,2 hPa 0,0 l/m 0 min 0 min 74 W/m 9,7 km/h (2 Bft) 97,87 %
24.06.2022 19:34 23,3 C 22,2 C 18,9 C 73 % 1007,2 hPa 0,0 l/m 0 min 0 min 69 W/m 9,7 km/h (2 Bft) 97,83 %
24.06.2022 19:36 23,2 C 22,2 C 18,9 C 73 % 1007,3 hPa 0,0 l/m 0 min 0 min 65 W/m 19,3 km/h (3 Bft) 97,87 %
24.06.2022 19:38 23,2 C 22,2 C 18,9 C 73 % 1007,2 hPa 0,0 l/m 0 min 0 min 63 W/m 6,4 km/h (2 Bft) 97,87 %
24.06.2022 19:40 23,1 C 22,2 C 18,9 C 73 % 1007,2 hPa 0,0 l/m 0 min 0 min 65 W/m 12,9 km/h (3 Bft) 97,87 %
24.06.2022 19:42 23,1 C 22,2 C 18,9 C 73 % 1007,2 hPa 0,0 l/m 0 min 0 min 69 W/m 12,9 km/h (3 Bft) 97,87 %
24.06.2022 19:44 23,1 C 22,2 C 18,9 C 73 % 1007,3 hPa 0,0 l/m 0 min 0 min 74 W/m 12,9 km/h (3 Bft) 97,87 %
24.06.2022 19:46 23,0 C 22,2 C 18,9 C 73 % 1007,3 hPa 0,0 l/m 0 min 0 min 81 W/m 12,9 km/h (3 Bft) 97,83 %
24.06.2022 19:48 23,0 C 22,2 C 18,9 C 73 % 1007,3 hPa 0,0 l/m 0 min 0 min 85 W/m 19,3 km/h (3 Bft) 95,74 %
24.06.2022 19:50 22,9 C 22,2 C 18,9 C 74 % 1007,4 hPa 0,0 l/m 0 min 0 min 89 W/m 9,7 km/h (2 Bft) 97,87 %
24.06.2022 19:52 22,9 C 22,2 C 18,9 C 74 % 1007,5 hPa 0,0 l/m 0 min 0 min 93 W/m 12,9 km/h (3 Bft) 97,87 %
24.06.2022 19:54 22,9 C 22,2 C 18,9 C 74 % 1007,6 hPa 0,0 l/m 0 min 0 min 98 W/m 12,9 km/h (3 Bft) 97,87 %
24.06.2022 19:56 22,9 C 22,2 C 18,9 C 74 % 1007,6 hPa 0,0 l/m 0 min 0 min 103 W/m 12,9 km/h (3 Bft) 97,87 %
24.06.2022 19:58 22,8 C 22,2 C 18,9 C 74 % 1007,6 hPa 0,0 l/m 0 min 0 min 112 W/m 6,4 km/h (2 Bft) 97,83 %
24.06.2022 20:00 22,8 C 22,2 C 18,9 C 74 % 1007,6 hPa 0,0 l/m 0 min 0 min 118 W/m 12,9 km/h (3 Bft) 97,87 %
24.06.2022 20:02 22,8 C 22,2 C 18,9 C 75 % 1007,6 hPa 0,0 l/m 2 min 0 min 127 W/m 6,4 km/h (2 Bft) 97,87 %
24.06.2022 20:04 22,8 C 22,2 C 18,9 C 75 % 1007,6 hPa 0,0 l/m 2 min 0 min 140 W/m 12,9 km/h (3 Bft) 97,87 %
24.06.2022 20:06 22,8 C 22,2 C 18,9 C 75 % 1007,6 hPa 0,0 l/m 2 min 0 min 131 W/m 6,4 km/h (2 Bft) 97,87 %
24.06.2022 20:08 22,8 C 22,2 C 18,9 C 76 % 1007,6 hPa 0,0 l/m 2 min 0 min 127 W/m 12,9 km/h (3 Bft) 100,00 %
24.06.2022 20:10 22,8 C 22,2 C 18,9 C 76 % 1007,6 hPa 0,0 l/m 2 min 0 min 120 W/m 16,1 km/h (3 Bft) 95,74 %
24.06.2022 20:12 22,8 C 22,2 C 18,9 C 76 % 1007,6 hPa 0,0 l/m 0 min 0 min 113 W/m 12,9 km/h (3 Bft) 97,83 %
24.06.2022 20:14 22,8 C 22,2 C 18,9 C 76 % 1007,6 hPa 0,0 l/m 0 min 0 min 105 W/m 6,4 km/h (2 Bft) 97,87 %
24.06.2022 20:16 22,8 C 22,2 C 18,9 C 76 % 1007,6 hPa 0,0 l/m 0 min 0 min 99 W/m 12,9 km/h (3 Bft) 100,00 %
24.06.2022 20:18 22,8 C 22,2 C 18,3 C 76 % 1007,7 hPa 0,0 l/m 0 min 0 min 91 W/m 12,9 km/h (3 Bft) 100,00 %
24.06.2022 20:20 22,8 C 22,2 C 18,3 C 76 % 1007,7 hPa 0,0 l/m 0 min 0 min 90 W/m 12,9 km/h (3 Bft) 97,87 %
24.06.2022 20:22 22,8 C 22,2 C 18,3 C 77 % 1007,7 hPa 0,0 l/m 0 min 0 min 88 W/m 6,4 km/h (2 Bft) 97,83 %
24.06.2022 20:24 22,8 C 22,2 C 18,3 C 77 % 1007,7 hPa 0,0 l/m 0 min 0 min 79 W/m 6,4 km/h (2 Bft) 97,87 %
24.06.2022 20:26 22,7 C 21,7 C 18,3 C 77 % 1007,7 hPa 0,0 l/m 0 min 0 min 71 W/m 12,9 km/h (3 Bft) 95,74 %
24.06.2022 20:28 22,7 C 21,7 C 18,3 C 77 % 1007,7 hPa 0,0 l/m 0 min 0 min 66 W/m 6,4 km/h (2 Bft) 97,87 %
24.06.2022 20:30 22,7 C 21,7 C 18,3 C 77 % 1007,8 hPa 0,0 l/m 0 min 0 min 59 W/m 12,9 km/h (3 Bft) 97,87 %
24.06.2022 20:32 22,6 C 21,7 C 18,3 C 77 % 1007,8 hPa 0,0 l/m 0 min 0 min 53 W/m 9,7 km/h (2 Bft) 95,74 %
24.06.2022 20:34 22,6 C 21,7 C 18,3 C 78 % 1007,8 hPa 0,0 l/m 0 min 0 min 46 W/m 6,4 km/h (2 Bft) 97,83 %
24.06.2022 20:36 22,6 C 21,1 C 18,3 C 78 % 1007,8 hPa 0,0 l/m 0 min 0 min 42 W/m 3,2 km/h (1 Bft) 95,74 %
24.06.2022 20:38 22,5 C 21,1 C 18,3 C 78 % 1007,8 hPa 0,0 l/m 0 min 0 min 40 W/m 12,9 km/h (3 Bft) 95,74 %
24.06.2022 20:40 22,4 C 21,1 C 17,8 C 79 % 1007,9 hPa 0,0 l/m 0 min 0 min 38 W/m 3,2 km/h (1 Bft) 95,74 %
24.06.2022 20:42 22,4 C 21,1 C 17,8 C 79 % 1008,0 hPa 0,0 l/m 0 min 0 min 32 W/m 12,9 km/h (3 Bft) 97,87 %
24.06.2022 20:44 22,4 C 21,1 C 17,8 C 79 % 1008,0 hPa 0,0 l/m 0 min 0 min 27 W/m 6,4 km/h (2 Bft) 97,87 %
24.06.2022 20:46 22,3 C 21,1 C 17,8 C 79 % 1008,1 hPa 0,0 l/m 0 min 0 min 24 W/m 12,9 km/h (3 Bft) 97,83 %
24.06.2022 20:48 22,3 C 21,1 C 17,8 C 80 % 1008,1 hPa 0,0 l/m 0 min 0 min 21 W/m 9,7 km/h (2 Bft) 97,87 %
24.06.2022 20:50 22,2 C 20,6 C 17,8 C 80 % 1008,1 hPa 0,0 l/m 0 min 0 min 21 W/m 12,9 km/h (3 Bft) 95,74 %
24.06.2022 20:52 22,2 C 20,6 C 17,8 C 80 % 1008,2 hPa 0,0 l/m 0 min 0 min 19 W/m 6,4 km/h (2 Bft) 93,62 %
24.06.2022 20:54 22,1 C 20,6 C 17,8 C 80 % 1008,2 hPa 0,0 l/m 0 min 0 min 19 W/m 12,9 km/h (3 Bft) 95,74 %
24.06.2022 20:56 22,1 C 20,6 C 17,8 C 81 % 1008,2 hPa 0,0 l/m 0 min 0 min 19 W/m 9,7 km/h (2 Bft) 97,87 %
24.06.2022 20:58 22,0 C 20,6 C 17,8 C 81 % 1008,3 hPa 0,0 l/m 0 min 0 min 19 W/m 6,4 km/h (2 Bft) 97,83 %
24.06.2022 21:00 22,0 C 20,6 C 17,8 C 81 % 1008,3 hPa 0,0 l/m 0 min 0 min 19 W/m 12,9 km/h (3 Bft) 95,74 %
24.06.2022 21:02 21,9 C 20,6 C 17,2 C 82 % 1008,3 hPa 0,0 l/m 0 min 0 min 18 W/m 6,4 km/h (2 Bft) 97,87 %
24.06.2022 21:04 21,9 C 20,6 C 17,2 C 82 % 1008,3 hPa 0,0 l/m 0 min 0 min 18 W/m 6,4 km/h (2 Bft) 97,87 %
24.06.2022 21:06 21,8 C 20,6 C 17,2 C 82 % 1008,3 hPa 0,0 l/m 0 min 0 min 18 W/m 6,4 km/h (2 Bft) 97,87 %
24.06.2022 21:08 21,8 C 20,6 C 17,2 C 82 % 1008,3 hPa 0,0 l/m 0 min 0 min 16 W/m 6,4 km/h (2 Bft) 95,74 %
24.06.2022 21:10 21,8 C 20,6 C 17,2 C 82 % 1008,3 hPa 0,0 l/m 0 min 0 min 16 W/m 3,2 km/h (1 Bft) 97,83 %
24.06.2022 21:12 21,7 C 20,0 C 17,2 C 83 % 1008,3 hPa 0,0 l/m 0 min 0 min 16 W/m 6,4 km/h (2 Bft) 97,87 %
24.06.2022 21:14 21,7 C 20,0 C 17,2 C 83 % 1008,4 hPa 0,0 l/m 0 min 0 min 16 W/m 3,2 km/h (1 Bft) 95,74 %
24.06.2022 21:16 21,6 C 20,0 C 17,2 C 83 % 1008,4 hPa 0,0 l/m 0 min 0 min 16 W/m 6,4 km/h (2 Bft) 97,87 %
24.06.2022 21:18 21,6 C 20,0 C 17,2 C 83 % 1008,4 hPa 0,0 l/m 0 min 0 min 16 W/m 9,7 km/h (2 Bft) 97,87 %
24.06.2022 21:20 21,5 C 20,0 C 17,2 C 83 % 1008,4 hPa 0,0 l/m 0 min 0 min 16 W/m 12,9 km/h (3 Bft) 97,87 %
24.06.2022 21:22 21,5 C 20,0 C 17,2 C 83 % 1008,3 hPa 0,0 l/m 0 min 0 min 16 W/m 6,4 km/h (2 Bft) 97,83 %
24.06.2022 21:24 21,4 C 20,0 C 17,2 C 83 % 1008,3 hPa 0,0 l/m 0 min 0 min 14 W/m 6,4 km/h (2 Bft) 95,74 %
24.06.2022 21:26 21,4 C 20,0 C 17,2 C 83 % 1008,3 hPa 0,0 l/m 0 min 0 min 14 W/m 12,9 km/h (3 Bft) 93,62 %
24.06.2022 21:28 21,3 C 20,0 C 17,2 C 83 % 1008,4 hPa 0,0 l/m 0 min 0 min 14 W/m 3,2 km/h (1 Bft) 97,87 %
24.06.2022 21:30 21,3 C 20,0 C 17,2 C 83 % 1008,4 hPa 0,0 l/m 0 min 0 min 13 W/m 6,4 km/h (2 Bft) 97,87 %
24.06.2022 21:32 21,2 C 20,0 C 16,7 C 83 % 1008,4 hPa 0,0 l/m 0 min 0 min 12 W/m 6,4 km/h (2 Bft) 97,87 %
24.06.2022 21:34 21,2 C 20,0 C 16,7 C 83 % 1008,5 hPa 0,0 l/m 0 min 0 min 12 W/m 6,4 km/h (2 Bft) 97,83 %
24.06.2022 21:36 21,1 C 19,4 C 16,7 C 83 % 1008,5 hPa 0,0 l/m 0 min 0 min 11 W/m 6,4 km/h (2 Bft) 97,87 %
24.06.2022 21:38 21,1 C 20,0 C 16,7 C 84 % 1008,6 hPa 0,0 l/m 0 min 0 min 11 W/m 6,4 km/h (2 Bft) 100,00 %
24.06.2022 21:40 21,1 C 20,0 C 16,7 C 84 % 1008,6 hPa 0,0 l/m 0 min 0 min 9 W/m 3,2 km/h (1 Bft) 100,00 %
24.06.2022 21:42 21,1 C 19,4 C 16,7 C 84 % 1008,6 hPa 0,0 l/m 0 min 0 min 9 W/m 6,4 km/h (2 Bft) 100,00 %
24.06.2022 21:44 21,1 C 20,0 C 16,7 C 84 % 1008,6 hPa 0,0 l/m 0 min 0 min 8 W/m 3,2 km/h (1 Bft) 97,87 %
24.06.2022 21:46 21,0 C 19,4 C 16,7 C 84 % 1008,6 hPa 0,0 l/m 0 min 0 min 7 W/m 3,2 km/h (1 Bft) 100,00 %
24.06.2022 21:48 21,0 C 19,4 C 16,7 C 84 % 1008,7 hPa 0,0 l/m 0 min 0 min 5 W/m 6,4 km/h (2 Bft) 100,00 %
24.06.2022 21:50 20,9 C 19,4 C 16,7 C 84 % 1008,7 hPa 0,0 l/m 0 min 0 min 5 W/m 3,2 km/h (1 Bft) 97,87 %
24.06.2022 21:52 20,9 C 19,4 C 16,7 C 84 % 1008,7 hPa 0,0 l/m 0 min 0 min 3 W/m 6,4 km/h (2 Bft) 100,00 %
24.06.2022 21:54 20,9 C 19,4 C 16,7 C 84 % 1008,8 hPa 0,0 l/m 0 min 0 min 0 W/m 3,2 km/h (1 Bft) 97,87 %
24.06.2022 21:56 20,8 C 19,4 C 16,7 C 84 % 1008,8 hPa 0,0 l/m 0 min 0 min 0 W/m 3,2 km/h (1 Bft) 100,00 %
24.06.2022 21:58 20,8 C 19,4 C 16,7 C 85 % 1008,8 hPa 0,0 l/m 0 min 0 min 0 W/m 3,2 km/h (1 Bft) 100,00 %
24.06.2022 22:00 20,8 C 19,4 C 16,7 C 85 % 1008,8 hPa 0,0 l/m 0 min 0 min 0 W/m 3,2 km/h (1 Bft) 100,00 %
24.06.2022 22:02 20,7 C 19,4 C 16,7 C 85 % 1008,8 hPa 0,0 l/m 0 min 0 min 0 W/m 3,2 km/h (1 Bft) 97,87 %
24.06.2022 22:04 20,7 C 19,4 C 16,7 C 85 % 1008,8 hPa 0,0 l/m 0 min 0 min 0 W/m 3,2 km/h (1 Bft) 97,87 %
24.06.2022 22:06 20,7 C 19,4 C 16,1 C 85 % 1008,8 hPa 0,0 l/m 0 min 0 min 0 W/m 3,2 km/h (1 Bft) 91,49 %
24.06.2022 22:08 20,7 C 19,4 C 16,1 C 85 % 1008,8 hPa 0,0 l/m 0 min 0 min 0 W/m 3,2 km/h (1 Bft) 97,87 %
24.06.2022 22:10 20,6 C 19,4 C 16,1 C 85 % 1008,9 hPa 0,0 l/m 0 min 0 min 0 W/m 3,2 km/h (1 Bft) 97,83 %
24.06.2022 22:12 20,6 C 18,9 C 16,1 C 85 % 1008,9 hPa 0,0 l/m 0 min 0 min 0 W/m 3,2 km/h (1 Bft) 93,62 %
24.06.2022 22:14 20,6 C 18,9 C 16,1 C 86 % 1008,9 hPa 0,0 l/m 0 min 0 min 0 W/m 3,2 km/h (1 Bft) 97,87 %
24.06.2022 22:16 20,5 C 18,9 C 16,1 C 86 % 1008,9 hPa 0,0 l/m 0 min 0 min 0 W/m 3,2 km/h (1 Bft) 95,74 %
24.06.2022 22:18 20,5 C 18,9 C 16,1 C 86 % 1008,9 hPa 0,0 l/m 0 min 0 min 0 W/m 3,2 km/h (1 Bft) 95,74 %
24.06.2022 22:20 20,4 C 18,9 C 16,1 C 86 % 1009,0 hPa 0,0 l/m 0 min 0 min 0 W/m 0,0 km/h (0 Bft) 95,65 %
24.06.2022 22:22 20,4 C 18,9 C 16,1 C 86 % 1008,9 hPa 0,0 l/m 0 min 0 min 0 W/m 3,2 km/h (1 Bft) 95,74 %
24.06.2022 22:24 20,4 C 18,9 C 16,1 C 86 % 1008,9 hPa 0,0 l/m 0 min 0 min 0 W/m 3,2 km/h (1 Bft) 93,62 %
24.06.2022 22:26 20,4 C 18,9 C 16,1 C 86 % 1009,0 hPa 0,0 l/m 0 min 0 min 0 W/m 3,2 km/h (1 Bft) 95,74 %
24.06.2022 22:28 20,3 C 18,9 C 16,1 C 86 % 1008,9 hPa 0,0 l/m 0 min 0 min 0 W/m 3,2 km/h (1 Bft) 95,74 %
24.06.2022 22:30 20,3 C 18,9 C 16,1 C 86 % 1008,9 hPa 0,0 l/m 0 min 0 min 0 W/m 12,9 km/h (3 Bft) 95,74 %
24.06.2022 22:32 20,3 C 18,9 C 16,1 C 86 % 1009,0 hPa 0,0 l/m 0 min 0 min 0 W/m 6,4 km/h (2 Bft) 95,65 %
24.06.2022 22:34 20,2 C 18,9 C 16,1 C 86 % 1009,0 hPa 0,0 l/m 0 min 0 min 0 W/m 3,2 km/h (1 Bft) 95,74 %
24.06.2022 22:36 20,2 C 18,9 C 16,1 C 86 % 1009,1 hPa 0,0 l/m 0 min 0 min 0 W/m 3,2 km/h (1 Bft) 97,87 %
24.06.2022 22:38 20,2 C 18,9 C 16,1 C 86 % 1009,1 hPa 0,0 l/m 0 min 0 min 0 W/m 9,7 km/h (2 Bft) 93,62 %
24.06.2022 22:40 20,2 C 18,9 C 16,1 C 87 % 1009,1 hPa 0,0 l/m 0 min 0 min 0 W/m 6,4 km/h (2 Bft) 95,74 %
24.06.2022 22:42 20,2 C 18,9 C 16,1 C 87 % 1009,1 hPa 0,0 l/m 0 min 0 min 0 W/m 3,2 km/h (1 Bft) 93,62 %
24.06.2022 22:44 20,2 C 18,9 C 16,1 C 87 % 1009,1 hPa 0,0 l/m 0 min 0 min 0 W/m 3,2 km/h (1 Bft) 95,74 %
24.06.2022 22:46 20,1 C 18,9 C 16,1 C 87 % 1009,1 hPa 0,0 l/m 0 min 0 min 0 W/m 6,4 km/h (2 Bft) 95,65 %
24.06.2022 22:48 20,1 C 18,9 C 16,1 C 87 % 1009,1 hPa 0,0 l/m 0 min 0 min 0 W/m 3,2 km/h (1 Bft) 95,74 %
24.06.2022 22:50 20,1 C 18,9 C 16,1 C 87 % 1009,1 hPa 0,0 l/m 0 min 0 min 0 W/m 6,4 km/h (2 Bft) 97,87 %
24.06.2022 22:52 20,1 C 18,9 C 16,1 C 87 % 1009,0 hPa 0,0 l/m 0 min 0 min 0 W/m 6,4 km/h (2 Bft) 97,87 %
24.06.2022 22:54 20,1 C 18,9 C 16,1 C 87 % 1009,1 hPa 0,0 l/m 0 min 0 min 0 W/m 3,2 km/h (1 Bft) 100,00 %
24.06.2022 22:56 20,1 C 18,9 C 16,1 C 87 % 1009,1 hPa 0,0 l/m 0 min 0 min 0 W/m 9,7 km/h (2 Bft) 100,00 %
24.06.2022 22:58 20,0 C 18,9 C 16,1 C 87 % 1009,1 hPa 0,0 l/m 0 min 0 min 0 W/m 6,4 km/h (2 Bft) 100,00 %
24.06.2022 23:00 20,0 C 18,9 C 16,1 C 87 % 1009,1 hPa 0,0 l/m 0 min 0 min 0 W/m 3,2 km/h (1 Bft) 97,87 %
24.06.2022 23:02 19,9 C 18,9 C 16,1 C 87 % 1009,1 hPa 0,0 l/m 0 min 0 min 0 W/m 6,4 km/h (2 Bft) 100,00 %
24.06.2022 23:04 19,9 C 18,9 C 16,1 C 87 % 1009,1 hPa 0,0 l/m 0 min 0 min 0 W/m 16,1 km/h (3 Bft) 100,00 %
24.06.2022 23:06 19,9 C 18,9 C 16,1 C 87 % 1009,2 hPa 0,0 l/m 0 min 0 min 0 W/m 16,1 km/h (3 Bft) 97,87 %
24.06.2022 23:08 19,9 C 18,9 C 16,1 C 87 % 1009,2 hPa 0,0 l/m 0 min 0 min 0 W/m 6,4 km/h (2 Bft) 100,00 %
24.06.2022 23:10 19,9 C 18,9 C 16,1 C 87 % 1009,2 hPa 0,0 l/m 0 min 0 min 0 W/m 9,7 km/h (2 Bft) 97,87 %
24.06.2022 23:12 19,9 C 18,9 C 16,1 C 87 % 1009,2 hPa 0,0 l/m 0 min 0 min 0 W/m 12,9 km/h (3 Bft) 100,00 %
24.06.2022 23:14 19,9 C 18,9 C 16,1 C 87 % 1009,1 hPa 0,0 l/m 0 min 0 min 0 W/m 6,4 km/h (2 Bft) 97,87 %
24.06.2022 23:16 19,9 C 18,9 C 16,1 C 87 % 1009,1 hPa 0,0 l/m 0 min 2 min 0 W/m 3,2 km/h (1 Bft) 100,00 %
24.06.2022 23:18 19,9 C 18,9 C 15,6 C 87 % 1009,0 hPa 0,0 l/m 0 min 2 min 0 W/m 12,9 km/h (3 Bft) 95,74 %
24.06.2022 23:20 19,9 C 18,9 C 15,6 C 88 % 1009,1 hPa 0,0 l/m 0 min 2 min 0 W/m 16,1 km/h (3 Bft) 100,00 %
24.06.2022 23:22 19,9 C 18,9 C 15,6 C 88 % 1009,1 hPa 0,0 l/m 0 min 0 min 0 W/m 9,7 km/h (2 Bft) 100,00 %
24.06.2022 23:24 19,9 C 18,9 C 15,6 C 88 % 1009,1 hPa 0,0 l/m 0 min 0 min 0 W/m 16,1 km/h (3 Bft) 100,00 %
24.06.2022 23:26 19,9 C 18,9 C 15,6 C 88 % 1009,2 hPa 0,0 l/m 0 min 0 min 0 W/m 9,7 km/h (2 Bft) 97,87 %
24.06.2022 23:28 19,9 C 18,9 C 15,6 C 88 % 1009,2 hPa 0,0 l/m 0 min 0 min 0 W/m 12,9 km/h (3 Bft) 100,00 %
24.06.2022 23:30 19,8 C 18,9 C 15,6 C 88 % 1009,2 hPa 0,0 l/m 0 min 0 min 0 W/m 16,1 km/h (3 Bft) 100,00 %
24.06.2022 23:32 19,8 C 18,9 C 15,6 C 88 % 1009,2 hPa 0,0 l/m 0 min 0 min 0 W/m 16,1 km/h (3 Bft) 100,00 %
24.06.2022 23:34 19,8 C 18,9 C 15,6 C 88 % 1009,2 hPa 0,0 l/m 0 min 0 min 0 W/m 9,7 km/h (2 Bft) 97,87 %
24.06.2022 23:36 19,8 C 18,9 C 15,6 C 88 % 1009,2 hPa 0,0 l/m 0 min 0 min 0 W/m 6,4 km/h (2 Bft) 97,83 %
24.06.2022 23:38 19,8 C 18,9 C 15,6 C 87 % 1009,2 hPa 0,0 l/m 0 min 0 min 0 W/m 6,4 km/h (2 Bft) 97,87 %
24.06.2022 23:40 19,8 C 18,9 C 15,6 C 87 % 1009,2 hPa 0,0 l/m 0 min 0 min 0 W/m 12,9 km/h (3 Bft) 97,87 %
24.06.2022 23:42 19,7 C 18,9 C 15,6 C 87 % 1009,2 hPa 0,0 l/m 0 min 0 min 0 W/m 12,9 km/h (3 Bft) 97,87 %
24.06.2022 23:44 19,7 C 18,9 C 15,6 C 87 % 1009,2 hPa 0,0 l/m 0 min 0 min 0 W/m 12,9 km/h (3 Bft) 95,74 %
24.06.2022 23:46 19,7 C 18,9 C 15,6 C 87 % 1009,2 hPa 0,0 l/m 0 min 0 min 0 W/m 12,9 km/h (3 Bft) 97,87 %
24.06.2022 23:48 19,7 C 18,9 C 15,6 C 87 % 1009,3 hPa 0,0 l/m 0 min 0 min 0 W/m 6,4 km/h (2 Bft) 97,83 %
24.06.2022 23:50 19,7 C 18,9 C 15,6 C 87 % 1009,2 hPa 0,0 l/m 0 min 0 min 0 W/m 12,9 km/h (3 Bft) 95,74 %
24.06.2022 23:52 19,6 C 18,9 C 15,6 C 87 % 1009,2 hPa 0,0 l/m 0 min 0 min 0 W/m 9,7 km/h (2 Bft) 97,87 %
24.06.2022 23:54 19,6 C 18,9 C 15,6 C 87 % 1009,2 hPa 0,0 l/m 0 min 0 min 0 W/m 12,9 km/h (3 Bft) 97,87 %
24.06.2022 23:56 19,6 C 18,9 C 15,6 C 87 % 1009,2 hPa 0,0 l/m 0 min 0 min 0 W/m 6,4 km/h (2 Bft) 97,87 %
24.06.2022 23:58 19,6 C 18,9 C 15,6 C 87 % 1009,2 hPa 0,0 l/m 0 min 0 min 0 W/m 12,9 km/h (3 Bft) 97,87 %
_ Min-Zeit 09:44 09:32 08:00 15:50 01:50 - - - - 00:26 04:14
Minimum _ 18,6 C 17,2 C 14,4 C 60 % 1005,8 hPa - - - - 0,0 km/h (0 Bft) 60,47 %
_ Max-Zeit 15:46 16:42 12:38 09:02 23:48 08:34 12:08 01:08 14:02 02:14 00:02
Maximum _ 27,1 C 30,6 C 25,6 C 98 % 1009,3 hPa 0,6 l/m 4 min 2 min 1178 W/m 25,7 km/h
SW (4 Bft)
100,00 %
Durchschnitt _ 21,8 C 21,4 C 17,7 C 85 % 1007,1 hPa #6,6 l/m #4:08 h #3:30 h 267 W/m 7,3 km/h (2 Bft) 97,47 %
© 2022 W. Hausmann